<?xml version="1.0" encoding="UTF-8" standalone="no" ?>
<gpx xmlns="http://www.topografix.com/GPX/1/1" xmlns:xsi="http://www.w3.org/2001/XMLSchema-instance" xsi:schemaLocation="http://www.topografix.com/GPX/1/1 http://www.topografix.com/GPX/1/1/gpx.xsd" version="1.1" creator="VisuGPX - https://www.visugpx.com">
  <metadata>
    <name>Nightride - Valmasque 08/09/11</name>
    <desc><![CDATA[Quand Julien et JL font les sangliers dans la Valmasque...]]></desc>
  </metadata>
  <trk>
    <name><![CDATA[ + 8 sept. 2011 21:47:17(2/2)(1/2)]]></name>
    <trkseg>
      <trkpt lat="43.61591" lon="7.04131">
        <ele>140</ele>
        <time>2011-09-08T19:20:36Z</time>
      </trkpt>
      <trkpt lat="43.61591" lon="7.04128">
        <ele>140</ele>
        <time>2011-09-08T19:20:42Z</time>
      </trkpt>
      <trkpt lat="43.61589" lon="7.0413">
        <ele>140</ele>
        <time>2011-09-08T19:20:43Z</time>
      </trkpt>
      <trkpt lat="43.61583" lon="7.04134">
        <ele>140</ele>
        <time>2011-09-08T19:20:46Z</time>
      </trkpt>
      <trkpt lat="43.61572" lon="7.04151">
        <ele>140</ele>
        <time>2011-09-08T19:20:51Z</time>
      </trkpt>
      <trkpt lat="43.61555" lon="7.04187">
        <ele>140</ele>
        <time>2011-09-08T19:20:58Z</time>
      </trkpt>
      <trkpt lat="43.61538" lon="7.04223">
        <ele>140</ele>
        <time>2011-09-08T19:21:05Z</time>
      </trkpt>
      <trkpt lat="43.61517" lon="7.04264">
        <ele>140</ele>
        <time>2011-09-08T19:21:14Z</time>
      </trkpt>
      <trkpt lat="43.61502" lon="7.04293">
        <ele>140</ele>
        <time>2011-09-08T19:21:22Z</time>
      </trkpt>
      <trkpt lat="43.61487" lon="7.0431">
        <ele>140</ele>
        <time>2011-09-08T19:21:29Z</time>
      </trkpt>
      <trkpt lat="43.61478" lon="7.04326">
        <ele>140</ele>
        <time>2011-09-08T19:21:34Z</time>
      </trkpt>
      <trkpt lat="43.61465" lon="7.04347">
        <ele>140</ele>
        <time>2011-09-08T19:21:42Z</time>
      </trkpt>
      <trkpt lat="43.61454" lon="7.04362">
        <ele>139.97790527344</ele>
        <time>2011-09-08T19:21:49Z</time>
      </trkpt>
      <trkpt lat="43.61446" lon="7.04373">
        <ele>139.58995056152</ele>
        <time>2011-09-08T19:21:55Z</time>
      </trkpt>
      <trkpt lat="43.61436" lon="7.04393">
        <ele>139</ele>
        <time>2011-09-08T19:22:04Z</time>
      </trkpt>
      <trkpt lat="43.61431" lon="7.04412">
        <ele>139</ele>
        <time>2011-09-08T19:22:11Z</time>
      </trkpt>
      <trkpt lat="43.61423" lon="7.04435">
        <ele>139</ele>
        <time>2011-09-08T19:22:19Z</time>
      </trkpt>
      <trkpt lat="43.61418" lon="7.04448">
        <ele>139</ele>
        <time>2011-09-08T19:22:24Z</time>
      </trkpt>
      <trkpt lat="43.61411" lon="7.0447">
        <ele>139</ele>
        <time>2011-09-08T19:22:31Z</time>
      </trkpt>
      <trkpt lat="43.61406" lon="7.04495">
        <ele>139.82174682617</ele>
        <time>2011-09-08T19:22:39Z</time>
      </trkpt>
      <trkpt lat="43.61406" lon="7.04502">
        <ele>140.03897094727</ele>
        <time>2011-09-08T19:22:41Z</time>
      </trkpt>
      <trkpt lat="43.6141" lon="7.04502">
        <ele>140.04922485352</ele>
        <time>2011-09-08T19:22:43Z</time>
      </trkpt>
      <trkpt lat="43.61417" lon="7.0449">
        <ele>139.64321899414</ele>
        <time>2011-09-08T19:22:48Z</time>
      </trkpt>
      <trkpt lat="43.6142" lon="7.04478">
        <ele>139.2353515625</ele>
        <time>2011-09-08T19:22:52Z</time>
      </trkpt>
      <trkpt lat="43.61422" lon="7.04472">
        <ele>139</ele>
        <time>2011-09-08T19:22:54Z</time>
      </trkpt>
      <trkpt lat="43.61431" lon="7.04462">
        <ele>139</ele>
        <time>2011-09-08T19:22:59Z</time>
      </trkpt>
      <trkpt lat="43.61439" lon="7.0446">
        <ele>139</ele>
        <time>2011-09-08T19:23:04Z</time>
      </trkpt>
      <trkpt lat="43.61443" lon="7.04459">
        <ele>139</ele>
        <time>2011-09-08T19:23:09Z</time>
      </trkpt>
      <trkpt lat="43.61446" lon="7.04459">
        <ele>139</ele>
        <time>2011-09-08T19:23:11Z</time>
      </trkpt>
      <trkpt lat="43.61451" lon="7.04462">
        <ele>139</ele>
        <time>2011-09-08T19:23:15Z</time>
      </trkpt>
      <trkpt lat="43.6146" lon="7.04466">
        <ele>139</ele>
        <time>2011-09-08T19:23:21Z</time>
      </trkpt>
      <trkpt lat="43.61462" lon="7.04464">
        <ele>139</ele>
        <time>2011-09-08T19:23:23Z</time>
      </trkpt>
      <trkpt lat="43.61466" lon="7.04461">
        <ele>139</ele>
        <time>2011-09-08T19:23:25Z</time>
      </trkpt>
      <trkpt lat="43.61475" lon="7.04455">
        <ele>139</ele>
        <time>2011-09-08T19:23:28Z</time>
      </trkpt>
      <trkpt lat="43.61506" lon="7.04443">
        <ele>139</ele>
        <time>2011-09-08T19:23:35Z</time>
      </trkpt>
      <trkpt lat="43.61532" lon="7.04434">
        <ele>139</ele>
        <time>2011-09-08T19:23:40Z</time>
      </trkpt>
      <trkpt lat="43.61538" lon="7.04433">
        <ele>139</ele>
        <time>2011-09-08T19:23:41Z</time>
      </trkpt>
      <trkpt lat="43.61557" lon="7.04432">
        <ele>139</ele>
        <time>2011-09-08T19:23:44Z</time>
      </trkpt>
      <trkpt lat="43.61563" lon="7.04434">
        <ele>139</ele>
        <time>2011-09-08T19:23:45Z</time>
      </trkpt>
      <trkpt lat="43.61581" lon="7.04446">
        <ele>139</ele>
        <time>2011-09-08T19:23:48Z</time>
      </trkpt>
      <trkpt lat="43.61586" lon="7.04451">
        <ele>139</ele>
        <time>2011-09-08T19:23:49Z</time>
      </trkpt>
      <trkpt lat="43.61609" lon="7.04483">
        <ele>139</ele>
        <time>2011-09-08T19:23:54Z</time>
      </trkpt>
      <trkpt lat="43.61635" lon="7.04526">
        <ele>138.18072509766</ele>
        <time>2011-09-08T19:24:00Z</time>
      </trkpt>
      <trkpt lat="43.61651" lon="7.04556">
        <ele>138.56945800781</ele>
        <time>2011-09-08T19:24:04Z</time>
      </trkpt>
      <trkpt lat="43.61669" lon="7.04597">
        <ele>138</ele>
        <time>2011-09-08T19:24:09Z</time>
      </trkpt>
      <trkpt lat="43.6169" lon="7.04636">
        <ele>138.15145874023</ele>
        <time>2011-09-08T19:24:14Z</time>
      </trkpt>
      <trkpt lat="43.61696" lon="7.04652">
        <ele>138.41494750977</ele>
        <time>2011-09-08T19:24:16Z</time>
      </trkpt>
      <trkpt lat="43.61707" lon="7.04686">
        <ele>138.564453125</ele>
        <time>2011-09-08T19:24:20Z</time>
      </trkpt>
      <trkpt lat="43.61712" lon="7.0472">
        <ele>138.38592529297</ele>
        <time>2011-09-08T19:24:24Z</time>
      </trkpt>
      <trkpt lat="43.61721" lon="7.04742">
        <ele>138.09693908691</ele>
        <time>2011-09-08T19:24:27Z</time>
      </trkpt>
      <trkpt lat="43.61723" lon="7.04749">
        <ele>137.9489440918</ele>
        <time>2011-09-08T19:24:28Z</time>
      </trkpt>
      <trkpt lat="43.61727" lon="7.04756">
        <ele>137.67321777344</ele>
        <time>2011-09-08T19:24:29Z</time>
      </trkpt>
      <trkpt lat="43.61731" lon="7.04768">
        <ele>137.37109375</ele>
        <time>2011-09-08T19:24:31Z</time>
      </trkpt>
      <trkpt lat="43.61733" lon="7.04777">
        <ele>137.23376464844</ele>
        <time>2011-09-08T19:24:33Z</time>
      </trkpt>
      <trkpt lat="43.61734" lon="7.04782">
        <ele>137.17883300781</ele>
        <time>2011-09-08T19:24:34Z</time>
      </trkpt>
      <trkpt lat="43.61735" lon="7.04787">
        <ele>137.06896972656</ele>
        <time>2011-09-08T19:24:35Z</time>
      </trkpt>
      <trkpt lat="43.61737" lon="7.04807">
        <ele>136.90417480469</ele>
        <time>2011-09-08T19:24:38Z</time>
      </trkpt>
      <trkpt lat="43.61737" lon="7.04813">
        <ele>136.931640625</ele>
        <time>2011-09-08T19:24:39Z</time>
      </trkpt>
      <trkpt lat="43.61736" lon="7.04826">
        <ele>136.98657226562</ele>
        <time>2011-09-08T19:24:42Z</time>
      </trkpt>
      <trkpt lat="43.61738" lon="7.04827">
        <ele>136.87670898438</ele>
        <time>2011-09-08T19:24:43Z</time>
      </trkpt>
      <trkpt lat="43.6175" lon="7.04826">
        <ele>136.02526855469</ele>
        <time>2011-09-08T19:24:46Z</time>
      </trkpt>
      <trkpt lat="43.61767" lon="7.04827">
        <ele>131.66644287109</ele>
        <time>2011-09-08T19:24:49Z</time>
      </trkpt>
      <trkpt lat="43.61773" lon="7.04827">
        <ele>130.12835693359</ele>
        <time>2011-09-08T19:24:50Z</time>
      </trkpt>
      <trkpt lat="43.61786" lon="7.04829">
        <ele>127.21569061279</ele>
        <time>2011-09-08T19:24:53Z</time>
      </trkpt>
      <trkpt lat="43.6179" lon="7.04829">
        <ele>126.40582275391</ele>
        <time>2011-09-08T19:24:54Z</time>
      </trkpt>
      <trkpt lat="43.61797" lon="7.04824">
        <ele>125.09709167481</ele>
        <time>2011-09-08T19:24:57Z</time>
      </trkpt>
      <trkpt lat="43.618" lon="7.04824">
        <ele>124.45665740967</ele>
        <time>2011-09-08T19:25:01Z</time>
      </trkpt>
      <trkpt lat="43.61806" lon="7.04832">
        <ele>123.05724334717</ele>
        <time>2011-09-08T19:25:05Z</time>
      </trkpt>
      <trkpt lat="43.61808" lon="7.04833">
        <ele>122.99879455566</ele>
        <time>2011-09-08T19:25:06Z</time>
      </trkpt>
      <trkpt lat="43.61813" lon="7.04842">
        <ele>122.61563873291</ele>
        <time>2011-09-08T19:25:09Z</time>
      </trkpt>
      <trkpt lat="43.61813" lon="7.04846">
        <ele>122.41567993164</ele>
        <time>2011-09-08T19:25:10Z</time>
      </trkpt>
      <trkpt lat="43.61816" lon="7.04869">
        <ele>121.33967590332</ele>
        <time>2011-09-08T19:25:14Z</time>
      </trkpt>
      <trkpt lat="43.6182" lon="7.049">
        <ele>120.29851531982</ele>
        <time>2011-09-08T19:25:18Z</time>
      </trkpt>
      <trkpt lat="43.61822" lon="7.04908">
        <ele>120.13745880127</ele>
        <time>2011-09-08T19:25:19Z</time>
      </trkpt>
      <trkpt lat="43.61827" lon="7.04922">
        <ele>120</ele>
        <time>2011-09-08T19:25:21Z</time>
      </trkpt>
      <trkpt lat="43.61838" lon="7.0494">
        <ele>120</ele>
        <time>2011-09-08T19:25:24Z</time>
      </trkpt>
      <trkpt lat="43.61843" lon="7.04945">
        <ele>120</ele>
        <time>2011-09-08T19:25:25Z</time>
      </trkpt>
      <trkpt lat="43.61848" lon="7.04949">
        <ele>120</ele>
        <time>2011-09-08T19:25:26Z</time>
      </trkpt>
      <trkpt lat="43.61862" lon="7.04959">
        <ele>120</ele>
        <time>2011-09-08T19:25:29Z</time>
      </trkpt>
      <trkpt lat="43.61882" lon="7.04963">
        <ele>120</ele>
        <time>2011-09-08T19:25:32Z</time>
      </trkpt>
      <trkpt lat="43.61888" lon="7.04964">
        <ele>120</ele>
        <time>2011-09-08T19:25:33Z</time>
      </trkpt>
      <trkpt lat="43.61893" lon="7.04963">
        <ele>120.05183410644</ele>
        <time>2011-09-08T19:25:34Z</time>
      </trkpt>
      <trkpt lat="43.61904" lon="7.04961">
        <ele>120.22065734863</ele>
        <time>2011-09-08T19:25:36Z</time>
      </trkpt>
      <trkpt lat="43.61932" lon="7.0496">
        <ele>120.42581939697</ele>
        <time>2011-09-08T19:25:40Z</time>
      </trkpt>
      <trkpt lat="43.61938" lon="7.0496">
        <ele>120.44470214844</ele>
        <time>2011-09-08T19:25:41Z</time>
      </trkpt>
      <trkpt lat="43.61951" lon="7.04963">
        <ele>120.32110595703</ele>
        <time>2011-09-08T19:25:43Z</time>
      </trkpt>
      <trkpt lat="43.61966" lon="7.04964">
        <ele>120.27990722656</ele>
        <time>2011-09-08T19:25:46Z</time>
      </trkpt>
      <trkpt lat="43.61972" lon="7.04964">
        <ele>120.28849029541</ele>
        <time>2011-09-08T19:25:47Z</time>
      </trkpt>
      <trkpt lat="43.61979" lon="7.04964">
        <ele>120.35401153565</ele>
        <time>2011-09-08T19:25:48Z</time>
      </trkpt>
      <trkpt lat="43.61996" lon="7.04971">
        <ele>120.06126403809</ele>
        <time>2011-09-08T19:25:51Z</time>
      </trkpt>
      <trkpt lat="43.62021" lon="7.04983">
        <ele>120</ele>
        <time>2011-09-08T19:25:55Z</time>
      </trkpt>
      <trkpt lat="43.62026" lon="7.04989">
        <ele>120</ele>
        <time>2011-09-08T19:25:56Z</time>
      </trkpt>
      <trkpt lat="43.62039" lon="7.05003">
        <ele>119.92504882812</ele>
        <time>2011-09-08T19:25:59Z</time>
      </trkpt>
      <trkpt lat="43.62043" lon="7.05006">
        <ele>119.89881896973</ele>
        <time>2011-09-08T19:26:00Z</time>
      </trkpt>
      <trkpt lat="43.62054" lon="7.0502">
        <ele>119.9504699707</ele>
        <time>2011-09-08T19:26:04Z</time>
      </trkpt>
      <trkpt lat="43.62064" lon="7.05044">
        <ele>119.59405517578</ele>
        <time>2011-09-08T19:26:08Z</time>
      </trkpt>
      <trkpt lat="43.62062" lon="7.05072">
        <ele>118.65557861328</ele>
        <time>2011-09-08T19:26:11Z</time>
      </trkpt>
      <trkpt lat="43.62055" lon="7.05099">
        <ele>117.98529052734</ele>
        <time>2011-09-08T19:26:14Z</time>
      </trkpt>
      <trkpt lat="43.62053" lon="7.05108">
        <ele>117.90245056152</ele>
        <time>2011-09-08T19:26:15Z</time>
      </trkpt>
      <trkpt lat="43.62045" lon="7.05165">
        <ele>116.05811309815</ele>
        <time>2011-09-08T19:26:21Z</time>
      </trkpt>
      <trkpt lat="43.62043" lon="7.05191">
        <ele>116</ele>
        <time>2011-09-08T19:26:24Z</time>
      </trkpt>
      <trkpt lat="43.62042" lon="7.052">
        <ele>115.80498504639</ele>
        <time>2011-09-08T19:26:25Z</time>
      </trkpt>
      <trkpt lat="43.62039" lon="7.05228">
        <ele>114.87853240967</ele>
        <time>2011-09-08T19:26:28Z</time>
      </trkpt>
      <trkpt lat="43.62038" lon="7.05238">
        <ele>114.64706420898</ele>
        <time>2011-09-08T19:26:29Z</time>
      </trkpt>
      <trkpt lat="43.62036" lon="7.05267">
        <ele>114.10694122315</ele>
        <time>2011-09-08T19:26:32Z</time>
      </trkpt>
      <trkpt lat="43.62036" lon="7.05285">
        <ele>113.73052978516</ele>
        <time>2011-09-08T19:26:34Z</time>
      </trkpt>
      <trkpt lat="43.62036" lon="7.05295">
        <ele>113.38720703125</ele>
        <time>2011-09-08T19:26:35Z</time>
      </trkpt>
      <trkpt lat="43.62038" lon="7.05329">
        <ele>112.47780609131</ele>
        <time>2011-09-08T19:26:39Z</time>
      </trkpt>
      <trkpt lat="43.62038" lon="7.05346">
        <ele>112.20499420166</ele>
        <time>2011-09-08T19:26:41Z</time>
      </trkpt>
      <trkpt lat="43.62039" lon="7.05361">
        <ele>112.00115966797</ele>
        <time>2011-09-08T19:26:43Z</time>
      </trkpt>
      <trkpt lat="43.62041" lon="7.05375">
        <ele>111.74404907227</ele>
        <time>2011-09-08T19:26:45Z</time>
      </trkpt>
      <trkpt lat="43.62046" lon="7.05394">
        <ele>111.53374481201</ele>
        <time>2011-09-08T19:26:48Z</time>
      </trkpt>
      <trkpt lat="43.62051" lon="7.05405">
        <ele>111.33712768555</ele>
        <time>2011-09-08T19:26:50Z</time>
      </trkpt>
      <trkpt lat="43.62058" lon="7.05425">
        <ele>110.91059112549</ele>
        <time>2011-09-08T19:26:53Z</time>
      </trkpt>
      <trkpt lat="43.62068" lon="7.05443">
        <ele>111.3451461792</ele>
        <time>2011-09-08T19:26:57Z</time>
      </trkpt>
      <trkpt lat="43.62079" lon="7.05436">
        <ele>112.56674194336</ele>
        <time>2011-09-08T19:27:00Z</time>
      </trkpt>
      <trkpt lat="43.62083" lon="7.05433">
        <ele>112.93844604492</ele>
        <time>2011-09-08T19:27:01Z</time>
      </trkpt>
      <trkpt lat="43.62086" lon="7.05431">
        <ele>113.79467773438</ele>
        <time>2011-09-08T19:27:02Z</time>
      </trkpt>
      <trkpt lat="43.62099" lon="7.05432">
        <ele>117.06311035156</ele>
        <time>2011-09-08T19:27:05Z</time>
      </trkpt>
      <trkpt lat="43.62104" lon="7.05434">
        <ele>118.31280517578</ele>
        <time>2011-09-08T19:27:06Z</time>
      </trkpt>
      <trkpt lat="43.62109" lon="7.05434">
        <ele>119.46636962891</ele>
        <time>2011-09-08T19:27:07Z</time>
      </trkpt>
      <trkpt lat="43.62117" lon="7.05435">
        <ele>121.05888366699</ele>
        <time>2011-09-08T19:27:09Z</time>
      </trkpt>
      <trkpt lat="43.62127" lon="7.05445">
        <ele>122.18668365478</ele>
        <time>2011-09-08T19:27:12Z</time>
      </trkpt>
      <trkpt lat="43.62133" lon="7.05465">
        <ele>121.30669403076</ele>
        <time>2011-09-08T19:27:16Z</time>
      </trkpt>
      <trkpt lat="43.62143" lon="7.05502">
        <ele>120.40216827393</ele>
        <time>2011-09-08T19:27:23Z</time>
      </trkpt>
      <trkpt lat="43.62155" lon="7.05519">
        <ele>120.53556823731</ele>
        <time>2011-09-08T19:27:27Z</time>
      </trkpt>
      <trkpt lat="43.62158" lon="7.05523">
        <ele>120.36130523682</ele>
        <time>2011-09-08T19:27:28Z</time>
      </trkpt>
      <trkpt lat="43.62161" lon="7.05528">
        <ele>120.02032470703</ele>
        <time>2011-09-08T19:27:29Z</time>
      </trkpt>
      <trkpt lat="43.62168" lon="7.05536">
        <ele>120</ele>
        <time>2011-09-08T19:27:31Z</time>
      </trkpt>
      <trkpt lat="43.62172" lon="7.0554">
        <ele>120</ele>
        <time>2011-09-08T19:27:32Z</time>
      </trkpt>
      <trkpt lat="43.62193" lon="7.05558">
        <ele>120</ele>
        <time>2011-09-08T19:27:37Z</time>
      </trkpt>
      <trkpt lat="43.6221" lon="7.05574">
        <ele>120</ele>
        <time>2011-09-08T19:27:41Z</time>
      </trkpt>
      <trkpt lat="43.62224" lon="7.05567">
        <ele>120</ele>
        <time>2011-09-08T19:27:44Z</time>
      </trkpt>
      <trkpt lat="43.62228" lon="7.05563">
        <ele>120</ele>
        <time>2011-09-08T19:27:45Z</time>
      </trkpt>
      <trkpt lat="43.62235" lon="7.05554">
        <ele>120</ele>
        <time>2011-09-08T19:27:48Z</time>
      </trkpt>
      <trkpt lat="43.62238" lon="7.05557">
        <ele>120</ele>
        <time>2011-09-08T19:27:51Z</time>
      </trkpt>
      <trkpt lat="43.62239" lon="7.05559">
        <ele>120</ele>
        <time>2011-09-08T19:27:53Z</time>
      </trkpt>
      <trkpt lat="43.62239" lon="7.05563">
        <ele>120</ele>
        <time>2011-09-08T19:27:55Z</time>
      </trkpt>
      <trkpt lat="43.6224" lon="7.05565">
        <ele>120</ele>
        <time>2011-09-08T19:27:56Z</time>
      </trkpt>
      <trkpt lat="43.62241" lon="7.0558">
        <ele>120</ele>
        <time>2011-09-08T19:28:00Z</time>
      </trkpt>
      <trkpt lat="43.62251" lon="7.05588">
        <ele>120</ele>
        <time>2011-09-08T19:28:04Z</time>
      </trkpt>
      <trkpt lat="43.62256" lon="7.05585">
        <ele>120</ele>
        <time>2011-09-08T19:28:06Z</time>
      </trkpt>
      <trkpt lat="43.62263" lon="7.05582">
        <ele>120</ele>
        <time>2011-09-08T19:28:09Z</time>
      </trkpt>
      <trkpt lat="43.62268" lon="7.05571">
        <ele>120</ele>
        <time>2011-09-08T19:28:14Z</time>
      </trkpt>
      <trkpt lat="43.6227" lon="7.05569">
        <ele>120</ele>
        <time>2011-09-08T19:28:16Z</time>
      </trkpt>
      <trkpt lat="43.62272" lon="7.05568">
        <ele>120</ele>
        <time>2011-09-08T19:28:18Z</time>
      </trkpt>
      <trkpt lat="43.62273" lon="7.05566">
        <ele>120</ele>
        <time>2011-09-08T19:28:19Z</time>
      </trkpt>
      <trkpt lat="43.62278" lon="7.05558">
        <ele>120</ele>
        <time>2011-09-08T19:28:24Z</time>
      </trkpt>
      <trkpt lat="43.6228" lon="7.05556">
        <ele>120</ele>
        <time>2011-09-08T19:28:25Z</time>
      </trkpt>
      <trkpt lat="43.62286" lon="7.0555">
        <ele>120</ele>
        <time>2011-09-08T19:28:29Z</time>
      </trkpt>
      <trkpt lat="43.62287" lon="7.05549">
        <ele>120</ele>
        <time>2011-09-08T19:28:30Z</time>
      </trkpt>
      <trkpt lat="43.62297" lon="7.0554">
        <ele>120</ele>
        <time>2011-09-08T19:28:36Z</time>
      </trkpt>
      <trkpt lat="43.62315" lon="7.05531">
        <ele>120</ele>
        <time>2011-09-08T19:28:45Z</time>
      </trkpt>
      <trkpt lat="43.62334" lon="7.05528">
        <ele>120</ele>
        <time>2011-09-08T19:28:53Z</time>
      </trkpt>
      <trkpt lat="43.62348" lon="7.0552">
        <ele>120</ele>
        <time>2011-09-08T19:28:58Z</time>
      </trkpt>
      <trkpt lat="43.62368" lon="7.05503">
        <ele>120</ele>
        <time>2011-09-08T19:29:04Z</time>
      </trkpt>
      <trkpt lat="43.62372" lon="7.05503">
        <ele>120</ele>
        <time>2011-09-08T19:29:05Z</time>
      </trkpt>
      <trkpt lat="43.62378" lon="7.05508">
        <ele>120</ele>
        <time>2011-09-08T19:29:07Z</time>
      </trkpt>
      <trkpt lat="43.62386" lon="7.05517">
        <ele>120</ele>
        <time>2011-09-08T19:29:11Z</time>
      </trkpt>
      <trkpt lat="43.62388" lon="7.05519">
        <ele>120</ele>
        <time>2011-09-08T19:29:12Z</time>
      </trkpt>
      <trkpt lat="43.62407" lon="7.0554">
        <ele>120</ele>
        <time>2011-09-08T19:29:22Z</time>
      </trkpt>
      <trkpt lat="43.62421" lon="7.05554">
        <ele>120.00602722168</ele>
        <time>2011-09-08T19:29:28Z</time>
      </trkpt>
      <trkpt lat="43.62445" lon="7.05578">
        <ele>120.00158691406</ele>
        <time>2011-09-08T19:29:37Z</time>
      </trkpt>
      <trkpt lat="43.62448" lon="7.05586">
        <ele>120.02499389648</ele>
        <time>2011-09-08T19:29:39Z</time>
      </trkpt>
      <trkpt lat="43.62447" lon="7.0559">
        <ele>120.05328369141</ele>
        <time>2011-09-08T19:29:40Z</time>
      </trkpt>
      <trkpt lat="43.62438" lon="7.05597">
        <ele>120</ele>
        <time>2011-09-08T19:29:43Z</time>
      </trkpt>
      <trkpt lat="43.6243" lon="7.05611">
        <ele>120.00119781494</ele>
        <time>2011-09-08T19:29:47Z</time>
      </trkpt>
      <trkpt lat="43.62434" lon="7.05634">
        <ele>120.49617004394</ele>
        <time>2011-09-08T19:29:52Z</time>
      </trkpt>
      <trkpt lat="43.62435" lon="7.05659">
        <ele>121.59342956543</ele>
        <time>2011-09-08T19:29:58Z</time>
      </trkpt>
      <trkpt lat="43.62436" lon="7.05666">
        <ele>122.04385375977</ele>
        <time>2011-09-08T19:30:00Z</time>
      </trkpt>
      <trkpt lat="43.6244" lon="7.05669">
        <ele>122.81526184082</ele>
        <time>2011-09-08T19:30:02Z</time>
      </trkpt>
      <trkpt lat="43.62446" lon="7.0567">
        <ele>123.57763671875</ele>
        <time>2011-09-08T19:30:04Z</time>
      </trkpt>
      <trkpt lat="43.62465" lon="7.05674">
        <ele>126.67612457275</ele>
        <time>2011-09-08T19:30:11Z</time>
      </trkpt>
      <trkpt lat="43.62463" lon="7.05682">
        <ele>127.30612182617</ele>
        <time>2011-09-08T19:30:14Z</time>
      </trkpt>
      <trkpt lat="43.62458" lon="7.05684">
        <ele>126.93533325195</ele>
        <time>2011-09-08T19:30:16Z</time>
      </trkpt>
      <trkpt lat="43.62453" lon="7.05694">
        <ele>127.25119018555</ele>
        <time>2011-09-08T19:30:19Z</time>
      </trkpt>
      <trkpt lat="43.62455" lon="7.05716">
        <ele>128.74192810059</ele>
        <time>2011-09-08T19:30:24Z</time>
      </trkpt>
      <trkpt lat="43.62464" lon="7.05728">
        <ele>130.85212707519</ele>
        <time>2011-09-08T19:30:28Z</time>
      </trkpt>
      <trkpt lat="43.62469" lon="7.05734">
        <ele>131.93608093262</ele>
        <time>2011-09-08T19:30:30Z</time>
      </trkpt>
      <trkpt lat="43.6247" lon="7.05741">
        <ele>132.80158996582</ele>
        <time>2011-09-08T19:30:32Z</time>
      </trkpt>
      <trkpt lat="43.62473" lon="7.05758">
        <ele>134.93789672852</ele>
        <time>2011-09-08T19:30:38Z</time>
      </trkpt>
      <trkpt lat="43.62472" lon="7.05766">
        <ele>135.71209716797</ele>
        <time>2011-09-08T19:30:41Z</time>
      </trkpt>
      <trkpt lat="43.62471" lon="7.05774">
        <ele>136.51547241211</ele>
        <time>2011-09-08T19:30:44Z</time>
      </trkpt>
      <trkpt lat="43.62466" lon="7.05793">
        <ele>137.61715698242</ele>
        <time>2011-09-08T19:30:51Z</time>
      </trkpt>
      <trkpt lat="43.62452" lon="7.05815">
        <ele>138.72448730469</ele>
        <time>2011-09-08T19:31:01Z</time>
      </trkpt>
      <trkpt lat="43.62435" lon="7.0583">
        <ele>139.51705932617</ele>
        <time>2011-09-08T19:31:10Z</time>
      </trkpt>
      <trkpt lat="43.62421" lon="7.05846">
        <ele>140.14288330078</ele>
        <time>2011-09-08T19:31:18Z</time>
      </trkpt>
      <trkpt lat="43.62409" lon="7.05867">
        <ele>141.10127258301</ele>
        <time>2011-09-08T19:31:25Z</time>
      </trkpt>
      <trkpt lat="43.62403" lon="7.05897">
        <ele>141.51184082031</ele>
        <time>2011-09-08T19:31:33Z</time>
      </trkpt>
      <trkpt lat="43.62406" lon="7.05922">
        <ele>141.80453491211</ele>
        <time>2011-09-08T19:31:39Z</time>
      </trkpt>
      <trkpt lat="43.62406" lon="7.05939">
        <ele>142.42080688477</ele>
        <time>2011-09-08T19:31:43Z</time>
      </trkpt>
      <trkpt lat="43.62406" lon="7.0595">
        <ele>142.62170410156</ele>
        <time>2011-09-08T19:31:46Z</time>
      </trkpt>
      <trkpt lat="43.6241" lon="7.05952">
        <ele>142.74530029297</ele>
        <time>2011-09-08T19:31:48Z</time>
      </trkpt>
      <trkpt lat="43.62413" lon="7.05944">
        <ele>142.85510253906</ele>
        <time>2011-09-08T19:31:51Z</time>
      </trkpt>
      <trkpt lat="43.62416" lon="7.05937">
        <ele>142.69374084473</ele>
        <time>2011-09-08T19:31:55Z</time>
      </trkpt>
      <trkpt lat="43.62417" lon="7.05922">
        <ele>142.18962097168</ele>
        <time>2011-09-08T19:31:59Z</time>
      </trkpt>
      <trkpt lat="43.62426" lon="7.05912">
        <ele>142.32208251953</ele>
        <time>2011-09-08T19:32:03Z</time>
      </trkpt>
      <trkpt lat="43.62431" lon="7.05909">
        <ele>142.52807617188</ele>
        <time>2011-09-08T19:32:05Z</time>
      </trkpt>
      <trkpt lat="43.62443" lon="7.05905">
        <ele>142.95379638672</ele>
        <time>2011-09-08T19:32:09Z</time>
      </trkpt>
      <trkpt lat="43.62455" lon="7.059">
        <ele>143</ele>
        <time>2011-09-08T19:32:13Z</time>
      </trkpt>
      <trkpt lat="43.62457" lon="7.059">
        <ele>143</ele>
        <time>2011-09-08T19:32:14Z</time>
      </trkpt>
      <trkpt lat="43.62472" lon="7.05908">
        <ele>143</ele>
        <time>2011-09-08T19:32:19Z</time>
      </trkpt>
      <trkpt lat="43.62483" lon="7.05939">
        <ele>143</ele>
        <time>2011-09-08T19:32:26Z</time>
      </trkpt>
      <trkpt lat="43.62489" lon="7.0596">
        <ele>143</ele>
        <time>2011-09-08T19:32:31Z</time>
      </trkpt>
      <trkpt lat="43.625" lon="7.0597">
        <ele>143</ele>
        <time>2011-09-08T19:32:35Z</time>
      </trkpt>
      <trkpt lat="43.62502" lon="7.05986">
        <ele>142.5100402832</ele>
        <time>2011-09-08T19:32:39Z</time>
      </trkpt>
      <trkpt lat="43.62503" lon="7.06003">
        <ele>142</ele>
        <time>2011-09-08T19:32:43Z</time>
      </trkpt>
      <trkpt lat="43.6251" lon="7.06019">
        <ele>142</ele>
        <time>2011-09-08T19:32:47Z</time>
      </trkpt>
      <trkpt lat="43.62517" lon="7.06022">
        <ele>142</ele>
        <time>2011-09-08T19:32:50Z</time>
      </trkpt>
      <trkpt lat="43.62529" lon="7.06031">
        <ele>142.04370117188</ele>
        <time>2011-09-08T19:32:54Z</time>
      </trkpt>
      <trkpt lat="43.62536" lon="7.06031">
        <ele>142.29089355469</ele>
        <time>2011-09-08T19:32:56Z</time>
      </trkpt>
      <trkpt lat="43.62542" lon="7.06029">
        <ele>142.51062011719</ele>
        <time>2011-09-08T19:32:58Z</time>
      </trkpt>
      <trkpt lat="43.62545" lon="7.0603">
        <ele>142.62048339844</ele>
        <time>2011-09-08T19:32:59Z</time>
      </trkpt>
      <trkpt lat="43.62556" lon="7.06028">
        <ele>143.00999450684</ele>
        <time>2011-09-08T19:33:02Z</time>
      </trkpt>
      <trkpt lat="43.62563" lon="7.06019">
        <ele>143.82653808594</ele>
        <time>2011-09-08T19:33:04Z</time>
      </trkpt>
      <trkpt lat="43.62566" lon="7.06015">
        <ele>144.21963500977</ele>
        <time>2011-09-08T19:33:05Z</time>
      </trkpt>
      <trkpt lat="43.62575" lon="7.05999">
        <ele>145.43499755859</ele>
        <time>2011-09-08T19:33:09Z</time>
      </trkpt>
      <trkpt lat="43.62587" lon="7.05981">
        <ele>146.84527587891</ele>
        <time>2011-09-08T19:33:13Z</time>
      </trkpt>
      <trkpt lat="43.62593" lon="7.05973">
        <ele>147.62739562988</ele>
        <time>2011-09-08T19:33:15Z</time>
      </trkpt>
      <trkpt lat="43.62602" lon="7.05957">
        <ele>148.89227294922</ele>
        <time>2011-09-08T19:33:19Z</time>
      </trkpt>
      <trkpt lat="43.62615" lon="7.05944">
        <ele>151.03225708008</ele>
        <time>2011-09-08T19:33:23Z</time>
      </trkpt>
      <trkpt lat="43.62625" lon="7.05945">
        <ele>153.47570800781</ele>
        <time>2011-09-08T19:33:26Z</time>
      </trkpt>
      <trkpt lat="43.6264" lon="7.05947">
        <ele>156.93695068359</ele>
        <time>2011-09-08T19:33:30Z</time>
      </trkpt>
      <trkpt lat="43.62663" lon="7.05962">
        <ele>159.60008239746</ele>
        <time>2011-09-08T19:33:36Z</time>
      </trkpt>
      <trkpt lat="43.62676" lon="7.05972">
        <ele>160.66407775879</ele>
        <time>2011-09-08T19:33:40Z</time>
      </trkpt>
      <trkpt lat="43.62687" lon="7.0598">
        <ele>160.87196350098</ele>
        <time>2011-09-08T19:33:43Z</time>
      </trkpt>
      <trkpt lat="43.62695" lon="7.0598">
        <ele>161.7282409668</ele>
        <time>2011-09-08T19:33:45Z</time>
      </trkpt>
      <trkpt lat="43.62703" lon="7.05983">
        <ele>161.73260498047</ele>
        <time>2011-09-08T19:33:47Z</time>
      </trkpt>
      <trkpt lat="43.62707" lon="7.05985">
        <ele>161.75015258789</ele>
        <time>2011-09-08T19:33:48Z</time>
      </trkpt>
      <trkpt lat="43.62715" lon="7.05989">
        <ele>161.83625793457</ele>
        <time>2011-09-08T19:33:50Z</time>
      </trkpt>
      <trkpt lat="43.62719" lon="7.05992">
        <ele>161.90789794922</ele>
        <time>2011-09-08T19:33:51Z</time>
      </trkpt>
      <trkpt lat="43.6274" lon="7.06009">
        <ele>161.88200378418</ele>
        <time>2011-09-08T19:33:56Z</time>
      </trkpt>
      <trkpt lat="43.62764" lon="7.06039">
        <ele>161.80184936523</ele>
        <time>2011-09-08T19:34:03Z</time>
      </trkpt>
      <trkpt lat="43.62766" lon="7.06043">
        <ele>161.77850341797</ele>
        <time>2011-09-08T19:34:04Z</time>
      </trkpt>
      <trkpt lat="43.62775" lon="7.06052">
        <ele>161.92465209961</ele>
        <time>2011-09-08T19:34:07Z</time>
      </trkpt>
      <trkpt lat="43.62778" lon="7.06057">
        <ele>161.95681762695</ele>
        <time>2011-09-08T19:34:08Z</time>
      </trkpt>
      <trkpt lat="43.62787" lon="7.06066">
        <ele>161.94984436035</ele>
        <time>2011-09-08T19:34:11Z</time>
      </trkpt>
      <trkpt lat="43.62791" lon="7.06076">
        <ele>161.76617431641</ele>
        <time>2011-09-08T19:34:13Z</time>
      </trkpt>
      <trkpt lat="43.62798" lon="7.06096">
        <ele>161.71166992188</ele>
        <time>2011-09-08T19:34:18Z</time>
      </trkpt>
      <trkpt lat="43.62801" lon="7.06104">
        <ele>161.84899902344</ele>
        <time>2011-09-08T19:34:21Z</time>
      </trkpt>
      <trkpt lat="43.62805" lon="7.06106">
        <ele>161.986328125</ele>
        <time>2011-09-08T19:34:23Z</time>
      </trkpt>
      <trkpt lat="43.62811" lon="7.06099">
        <ele>162.27395629883</ele>
        <time>2011-09-08T19:34:27Z</time>
      </trkpt>
      <trkpt lat="43.62819" lon="7.06094">
        <ele>162.75659179688</ele>
        <time>2011-09-08T19:34:31Z</time>
      </trkpt>
      <trkpt lat="43.62821" lon="7.06093">
        <ele>162.92105102539</ele>
        <time>2011-09-08T19:34:32Z</time>
      </trkpt>
      <trkpt lat="43.6283" lon="7.06085">
        <ele>163.71228027344</ele>
        <time>2011-09-08T19:34:38Z</time>
      </trkpt>
      <trkpt lat="43.62832" lon="7.06083">
        <ele>163.91714477539</ele>
        <time>2011-09-08T19:34:41Z</time>
      </trkpt>
      <trkpt lat="43.62836" lon="7.06081">
        <ele>163.73782348633</ele>
        <time>2011-09-08T19:34:44Z</time>
      </trkpt>
      <trkpt lat="43.62838" lon="7.06079">
        <ele>163.67086791992</ele>
        <time>2011-09-08T19:34:46Z</time>
      </trkpt>
      <trkpt lat="43.6284" lon="7.06078">
        <ele>163.52496337891</ele>
        <time>2011-09-08T19:34:47Z</time>
      </trkpt>
      <trkpt lat="43.6284" lon="7.06077">
        <ele>163.50263977051</ele>
        <time>2011-09-08T19:34:48Z</time>
      </trkpt>
      <trkpt lat="43.62842" lon="7.06073">
        <ele>163.47174072266</ele>
        <time>2011-09-08T19:34:53Z</time>
      </trkpt>
      <trkpt lat="43.62842" lon="7.06076">
        <ele>163.31552124023</ele>
        <time>2011-09-08T19:34:58Z</time>
      </trkpt>
      <trkpt lat="43.62833" lon="7.0608">
        <ele>164.11456298828</ele>
        <time>2011-09-08T19:35:04Z</time>
      </trkpt>
      <trkpt lat="43.62832" lon="7.06079">
        <ele>164.09396362305</ele>
        <time>2011-09-08T19:35:05Z</time>
      </trkpt>
      <trkpt lat="43.6283" lon="7.06076">
        <ele>164.05963134766</ele>
        <time>2011-09-08T19:35:08Z</time>
      </trkpt>
      <trkpt lat="43.62827" lon="7.06076">
        <ele>163.826171875</ele>
        <time>2011-09-08T19:35:10Z</time>
      </trkpt>
      <trkpt lat="43.62825" lon="7.06075">
        <ele>163.73345947266</ele>
        <time>2011-09-08T19:35:11Z</time>
      </trkpt>
      <trkpt lat="43.62824" lon="7.06073">
        <ele>163.71115112305</ele>
        <time>2011-09-08T19:35:12Z</time>
      </trkpt>
      <trkpt lat="43.62822" lon="7.06073">
        <ele>163.53778076172</ele>
        <time>2011-09-08T19:35:16Z</time>
      </trkpt>
      <trkpt lat="43.62822" lon="7.06077">
        <ele>163.39186096191</ele>
        <time>2011-09-08T19:35:20Z</time>
      </trkpt>
      <trkpt lat="43.62824" lon="7.06077">
        <ele>163.59098815918</ele>
        <time>2011-09-08T19:35:22Z</time>
      </trkpt>
      <trkpt lat="43.62827" lon="7.06076">
        <ele>163.82788085938</ele>
        <time>2011-09-08T19:35:24Z</time>
      </trkpt>
      <trkpt lat="43.6283" lon="7.06073">
        <ele>164.12142944336</ele>
        <time>2011-09-08T19:35:26Z</time>
      </trkpt>
      <trkpt lat="43.62832" lon="7.06069">
        <ele>164.44242858887</ele>
        <time>2011-09-08T19:35:28Z</time>
      </trkpt>
      <trkpt lat="43.62832" lon="7.06068">
        <ele>164.49221801758</ele>
        <time>2011-09-08T19:35:29Z</time>
      </trkpt>
      <trkpt lat="43.6283" lon="7.06058">
        <ele>164.69476318359</ele>
        <time>2011-09-08T19:35:32Z</time>
      </trkpt>
      <trkpt lat="43.62831" lon="7.06038">
        <ele>164.86779785156</ele>
        <time>2011-09-08T19:35:39Z</time>
      </trkpt>
      <trkpt lat="43.62833" lon="7.06037">
        <ele>164.99230957031</ele>
        <time>2011-09-08T19:35:40Z</time>
      </trkpt>
      <trkpt lat="43.62837" lon="7.06029">
        <ele>164.62152099609</ele>
        <time>2011-09-08T19:35:43Z</time>
      </trkpt>
      <trkpt lat="43.62841" lon="7.06008">
        <ele>164.62454223633</ele>
        <time>2011-09-08T19:35:49Z</time>
      </trkpt>
      <trkpt lat="43.62848" lon="7.05995">
        <ele>163.95320129394</ele>
        <time>2011-09-08T19:35:54Z</time>
      </trkpt>
      <trkpt lat="43.62857" lon="7.05975">
        <ele>162.03713989258</ele>
        <time>2011-09-08T19:36:00Z</time>
      </trkpt>
      <trkpt lat="43.62869" lon="7.05957">
        <ele>157.04960632324</ele>
        <time>2011-09-08T19:36:06Z</time>
      </trkpt>
      <trkpt lat="43.62884" lon="7.05927">
        <ele>147.3825378418</ele>
        <time>2011-09-08T19:36:12Z</time>
      </trkpt>
      <trkpt lat="43.62892" lon="7.0591">
        <ele>142.55834960938</ele>
        <time>2011-09-08T19:36:15Z</time>
      </trkpt>
      <trkpt lat="43.62892" lon="7.05899">
        <ele>142.84817504883</ele>
        <time>2011-09-08T19:36:17Z</time>
      </trkpt>
      <trkpt lat="43.62896" lon="7.05879">
        <ele>142.31396484375</ele>
        <time>2011-09-08T19:36:20Z</time>
      </trkpt>
      <trkpt lat="43.629" lon="7.05849">
        <ele>143.29827880859</ele>
        <time>2011-09-08T19:36:24Z</time>
      </trkpt>
      <trkpt lat="43.62902" lon="7.05838">
        <ele>143.56092834473</ele>
        <time>2011-09-08T19:36:25Z</time>
      </trkpt>
      <trkpt lat="43.62904" lon="7.05829">
        <ele>143.92196655273</ele>
        <time>2011-09-08T19:36:26Z</time>
      </trkpt>
      <trkpt lat="43.62901" lon="7.05812">
        <ele>146.91201782227</ele>
        <time>2011-09-08T19:36:28Z</time>
      </trkpt>
      <trkpt lat="43.62888" lon="7.0579">
        <ele>154.84446716309</ele>
        <time>2011-09-08T19:36:31Z</time>
      </trkpt>
      <trkpt lat="43.6286" lon="7.05734">
        <ele>168.48851013184</ele>
        <time>2011-09-08T19:36:38Z</time>
      </trkpt>
      <trkpt lat="43.62862" lon="7.05723">
        <ele>169.63307189941</ele>
        <time>2011-09-08T19:36:41Z</time>
      </trkpt>
      <trkpt lat="43.62866" lon="7.05718">
        <ele>169.57157897949</ele>
        <time>2011-09-08T19:36:43Z</time>
      </trkpt>
      <trkpt lat="43.62868" lon="7.05713">
        <ele>169.69793701172</ele>
        <time>2011-09-08T19:36:45Z</time>
      </trkpt>
      <trkpt lat="43.6287" lon="7.05709">
        <ele>169.86679077148</ele>
        <time>2011-09-08T19:36:47Z</time>
      </trkpt>
      <trkpt lat="43.62873" lon="7.057">
        <ele>170.49703979492</ele>
        <time>2011-09-08T19:36:52Z</time>
      </trkpt>
      <trkpt lat="43.6288" lon="7.05708">
        <ele>168.71919250488</ele>
        <time>2011-09-08T19:37:12Z</time>
      </trkpt>
      <trkpt lat="43.62891" lon="7.05719">
        <ele>165.15646362305</ele>
        <time>2011-09-08T19:37:16Z</time>
      </trkpt>
      <trkpt lat="43.62898" lon="7.05739">
        <ele>159.55786132812</ele>
        <time>2011-09-08T19:37:20Z</time>
      </trkpt>
      <trkpt lat="43.62908" lon="7.05742">
        <ele>156.87144470215</ele>
        <time>2011-09-08T19:37:23Z</time>
      </trkpt>
      <trkpt lat="43.62923" lon="7.05733">
        <ele>156.3498840332</ele>
        <time>2011-09-08T19:37:27Z</time>
      </trkpt>
      <trkpt lat="43.62931" lon="7.05747">
        <ele>150.81953430176</ele>
        <time>2011-09-08T19:37:30Z</time>
      </trkpt>
      <trkpt lat="43.62934" lon="7.05752">
        <ele>148.60327148438</ele>
        <time>2011-09-08T19:37:31Z</time>
      </trkpt>
      <trkpt lat="43.62941" lon="7.05759">
        <ele>145.27990722656</ele>
        <time>2011-09-08T19:37:33Z</time>
      </trkpt>
      <trkpt lat="43.62943" lon="7.05762">
        <ele>143.78302001953</ele>
        <time>2011-09-08T19:37:34Z</time>
      </trkpt>
      <trkpt lat="43.62947" lon="7.05781">
        <ele>138.09770202637</ele>
        <time>2011-09-08T19:37:38Z</time>
      </trkpt>
      <trkpt lat="43.62948" lon="7.05794">
        <ele>135.78701782227</ele>
        <time>2011-09-08T19:37:40Z</time>
      </trkpt>
      <trkpt lat="43.62948" lon="7.0581">
        <ele>133.19566345215</ele>
        <time>2011-09-08T19:37:42Z</time>
      </trkpt>
      <trkpt lat="43.62945" lon="7.05836">
        <ele>129.34982299805</ele>
        <time>2011-09-08T19:37:46Z</time>
      </trkpt>
      <trkpt lat="43.62943" lon="7.05867">
        <ele>124.03876495361</ele>
        <time>2011-09-08T19:37:50Z</time>
      </trkpt>
      <trkpt lat="43.62945" lon="7.05905">
        <ele>119.21236419678</ele>
        <time>2011-09-08T19:37:55Z</time>
      </trkpt>
      <trkpt lat="43.62947" lon="7.05912">
        <ele>118.2208404541</ele>
        <time>2011-09-08T19:37:56Z</time>
      </trkpt>
      <trkpt lat="43.62953" lon="7.05936">
        <ele>114.79776000977</ele>
        <time>2011-09-08T19:37:59Z</time>
      </trkpt>
      <trkpt lat="43.62956" lon="7.05951">
        <ele>112.97933197022</ele>
        <time>2011-09-08T19:38:01Z</time>
      </trkpt>
      <trkpt lat="43.62959" lon="7.05959">
        <ele>111.5150680542</ele>
        <time>2011-09-08T19:38:02Z</time>
      </trkpt>
      <trkpt lat="43.62967" lon="7.05979">
        <ele>106.86798858643</ele>
        <time>2011-09-08T19:38:05Z</time>
      </trkpt>
      <trkpt lat="43.62968" lon="7.05985">
        <ele>106.00080108643</ele>
        <time>2011-09-08T19:38:06Z</time>
      </trkpt>
      <trkpt lat="43.62972" lon="7.05993">
        <ele>103.22296142578</ele>
        <time>2011-09-08T19:38:08Z</time>
      </trkpt>
      <trkpt lat="43.62977" lon="7.05998">
        <ele>101.10807037353</ele>
        <time>2011-09-08T19:38:10Z</time>
      </trkpt>
      <trkpt lat="43.6298" lon="7.06001">
        <ele>99.775573730469</ele>
        <time>2011-09-08T19:38:11Z</time>
      </trkpt>
      <trkpt lat="43.62984" lon="7.06004">
        <ele>98.161956787109</ele>
        <time>2011-09-08T19:38:12Z</time>
      </trkpt>
      <trkpt lat="43.62993" lon="7.06014">
        <ele>93.671295166016</ele>
        <time>2011-09-08T19:38:14Z</time>
      </trkpt>
      <trkpt lat="43.62997" lon="7.0602">
        <ele>91.875717163086</ele>
        <time>2011-09-08T19:38:15Z</time>
      </trkpt>
      <trkpt lat="43.63003" lon="7.06046">
        <ele>88.281219482422</ele>
        <time>2011-09-08T19:38:19Z</time>
      </trkpt>
      <trkpt lat="43.63005" lon="7.06053">
        <ele>87.552459716797</ele>
        <time>2011-09-08T19:38:20Z</time>
      </trkpt>
      <trkpt lat="43.63012" lon="7.06069">
        <ele>85.273880004883</ele>
        <time>2011-09-08T19:38:23Z</time>
      </trkpt>
      <trkpt lat="43.63014" lon="7.06075">
        <ele>84.859428405762</ele>
        <time>2011-09-08T19:38:24Z</time>
      </trkpt>
      <trkpt lat="43.63016" lon="7.06089">
        <ele>84.761077880859</ele>
        <time>2011-09-08T19:38:27Z</time>
      </trkpt>
      <trkpt lat="43.63017" lon="7.06092">
        <ele>84.678680419922</ele>
        <time>2011-09-08T19:38:28Z</time>
      </trkpt>
      <trkpt lat="43.63015" lon="7.06102">
        <ele>86.069137573242</ele>
        <time>2011-09-08T19:38:31Z</time>
      </trkpt>
      <trkpt lat="43.63015" lon="7.06111">
        <ele>86.443359375</ele>
        <time>2011-09-08T19:38:35Z</time>
      </trkpt>
      <trkpt lat="43.63026" lon="7.06107">
        <ele>82.436782836914</ele>
        <time>2011-09-08T19:38:39Z</time>
      </trkpt>
      <trkpt lat="43.63032" lon="7.06106">
        <ele>81.354568481445</ele>
        <time>2011-09-08T19:38:41Z</time>
      </trkpt>
      <trkpt lat="43.6304" lon="7.061">
        <ele>80.645492553711</ele>
        <time>2011-09-08T19:38:44Z</time>
      </trkpt>
      <trkpt lat="43.63045" lon="7.06094">
        <ele>80.287773132324</ele>
        <time>2011-09-08T19:38:48Z</time>
      </trkpt>
      <trkpt lat="43.6305" lon="7.06099">
        <ele>80.203552246094</ele>
        <time>2011-09-08T19:38:50Z</time>
      </trkpt>
      <trkpt lat="43.63054" lon="7.06103">
        <ele>80.083427429199</ele>
        <time>2011-09-08T19:38:51Z</time>
      </trkpt>
      <trkpt lat="43.63061" lon="7.06115">
        <ele>80</ele>
        <time>2011-09-08T19:38:55Z</time>
      </trkpt>
      <trkpt lat="43.63066" lon="7.06116">
        <ele>80</ele>
        <time>2011-09-08T19:38:57Z</time>
      </trkpt>
      <trkpt lat="43.63068" lon="7.0611">
        <ele>80</ele>
        <time>2011-09-08T19:38:59Z</time>
      </trkpt>
      <trkpt lat="43.63067" lon="7.06097">
        <ele>80</ele>
        <time>2011-09-08T19:39:02Z</time>
      </trkpt>
      <trkpt lat="43.63062" lon="7.06087">
        <ele>80</ele>
        <time>2011-09-08T19:39:04Z</time>
      </trkpt>
      <trkpt lat="43.63057" lon="7.06076">
        <ele>80</ele>
        <time>2011-09-08T19:39:06Z</time>
      </trkpt>
      <trkpt lat="43.63045" lon="7.06046">
        <ele>80</ele>
        <time>2011-09-08T19:39:11Z</time>
      </trkpt>
      <trkpt lat="43.63044" lon="7.0604">
        <ele>80</ele>
        <time>2011-09-08T19:39:12Z</time>
      </trkpt>
      <trkpt lat="43.63042" lon="7.06021">
        <ele>80.364219665527</ele>
        <time>2011-09-08T19:39:15Z</time>
      </trkpt>
      <trkpt lat="43.63042" lon="7.06015">
        <ele>80.666770935059</ele>
        <time>2011-09-08T19:39:16Z</time>
      </trkpt>
      <trkpt lat="43.63041" lon="7.06006">
        <ele>81.187950134277</ele>
        <time>2011-09-08T19:39:17Z</time>
      </trkpt>
      <trkpt lat="43.63043" lon="7.05985">
        <ele>82.31884765625</ele>
        <time>2011-09-08T19:39:20Z</time>
      </trkpt>
      <trkpt lat="43.63045" lon="7.05966">
        <ele>83.166290283203</ele>
        <time>2011-09-08T19:39:22Z</time>
      </trkpt>
      <trkpt lat="43.6305" lon="7.05937">
        <ele>85.181159973145</ele>
        <time>2011-09-08T19:39:25Z</time>
      </trkpt>
      <trkpt lat="43.6305" lon="7.05923">
        <ele>88.034721374512</ele>
        <time>2011-09-08T19:39:27Z</time>
      </trkpt>
      <trkpt lat="43.63052" lon="7.05908">
        <ele>90.619293212891</ele>
        <time>2011-09-08T19:39:29Z</time>
      </trkpt>
      <trkpt lat="43.63052" lon="7.05893">
        <ele>93.636283874512</ele>
        <time>2011-09-08T19:39:31Z</time>
      </trkpt>
      <trkpt lat="43.63052" lon="7.05876">
        <ele>96.24845123291</ele>
        <time>2011-09-08T19:39:34Z</time>
      </trkpt>
      <trkpt lat="43.63054" lon="7.05862">
        <ele>97.974159240723</ele>
        <time>2011-09-08T19:39:37Z</time>
      </trkpt>
      <trkpt lat="43.63058" lon="7.05855">
        <ele>98.627212524414</ele>
        <time>2011-09-08T19:39:39Z</time>
      </trkpt>
      <trkpt lat="43.63061" lon="7.05843">
        <ele>100.28988647461</ele>
        <time>2011-09-08T19:39:43Z</time>
      </trkpt>
      <trkpt lat="43.63065" lon="7.05836">
        <ele>100.74178314209</ele>
        <time>2011-09-08T19:39:46Z</time>
      </trkpt>
      <trkpt lat="43.63068" lon="7.05835">
        <ele>100.50871276856</ele>
        <time>2011-09-08T19:39:47Z</time>
      </trkpt>
      <trkpt lat="43.63083" lon="7.05826">
        <ele>99.109619140625</ele>
        <time>2011-09-08T19:39:52Z</time>
      </trkpt>
      <trkpt lat="43.63103" lon="7.05816">
        <ele>96.664558410645</ele>
        <time>2011-09-08T19:39:58Z</time>
      </trkpt>
      <trkpt lat="43.63115" lon="7.05806">
        <ele>95.600952148438</ele>
        <time>2011-09-08T19:40:03Z</time>
      </trkpt>
      <trkpt lat="43.63116" lon="7.05804">
        <ele>95.318893432617</ele>
        <time>2011-09-08T19:40:04Z</time>
      </trkpt>
      <trkpt lat="43.63122" lon="7.058">
        <ele>93.182022094727</ele>
        <time>2011-09-08T19:40:07Z</time>
      </trkpt>
      <trkpt lat="43.63124" lon="7.05798">
        <ele>92.731986999512</ele>
        <time>2011-09-08T19:40:08Z</time>
      </trkpt>
      <trkpt lat="43.63128" lon="7.05793">
        <ele>91.306167602539</ele>
        <time>2011-09-08T19:40:11Z</time>
      </trkpt>
      <trkpt lat="43.63135" lon="7.05784">
        <ele>89.175918579102</ele>
        <time>2011-09-08T19:40:16Z</time>
      </trkpt>
      <trkpt lat="43.63142" lon="7.05777">
        <ele>87.052253723145</ele>
        <time>2011-09-08T19:40:21Z</time>
      </trkpt>
      <trkpt lat="43.63145" lon="7.05774">
        <ele>86.40552520752</ele>
        <time>2011-09-08T19:40:23Z</time>
      </trkpt>
      <trkpt lat="43.63149" lon="7.0577">
        <ele>85.682426452637</ele>
        <time>2011-09-08T19:40:26Z</time>
      </trkpt>
      <trkpt lat="43.63152" lon="7.05768">
        <ele>84.92741394043</ele>
        <time>2011-09-08T19:40:28Z</time>
      </trkpt>
      <trkpt lat="43.63157" lon="7.05764">
        <ele>83.324310302734</ele>
        <time>2011-09-08T19:40:31Z</time>
      </trkpt>
      <trkpt lat="43.6316" lon="7.05761">
        <ele>82.515068054199</ele>
        <time>2011-09-08T19:40:33Z</time>
      </trkpt>
      <trkpt lat="43.63164" lon="7.05756">
        <ele>80.938819885254</ele>
        <time>2011-09-08T19:40:36Z</time>
      </trkpt>
      <trkpt lat="43.63166" lon="7.05754">
        <ele>80.380676269531</ele>
        <time>2011-09-08T19:40:37Z</time>
      </trkpt>
      <trkpt lat="43.63167" lon="7.05747">
        <ele>80</ele>
        <time>2011-09-08T19:40:42Z</time>
      </trkpt>
      <trkpt lat="43.63167" lon="7.05744">
        <ele>80</ele>
        <time>2011-09-08T19:40:44Z</time>
      </trkpt>
      <trkpt lat="43.63169" lon="7.0574">
        <ele>80</ele>
        <time>2011-09-08T19:40:48Z</time>
      </trkpt>
      <trkpt lat="43.63169" lon="7.05736">
        <ele>80</ele>
        <time>2011-09-08T19:40:56Z</time>
      </trkpt>
      <trkpt lat="43.63172" lon="7.05722">
        <ele>80.041191101074</ele>
        <time>2011-09-08T19:41:53Z</time>
      </trkpt>
      <trkpt lat="43.63172" lon="7.05715">
        <ele>80.42236328125</ele>
        <time>2011-09-08T19:41:55Z</time>
      </trkpt>
      <trkpt lat="43.63167" lon="7.05706">
        <ele>81.140892028809</ele>
        <time>2011-09-08T19:41:57Z</time>
      </trkpt>
      <trkpt lat="43.63163" lon="7.05692">
        <ele>84.027778625488</ele>
        <time>2011-09-08T19:42:00Z</time>
      </trkpt>
      <trkpt lat="43.63162" lon="7.05688">
        <ele>85.563117980957</ele>
        <time>2011-09-08T19:42:01Z</time>
      </trkpt>
      <trkpt lat="43.63157" lon="7.05662">
        <ele>91.752510070801</ele>
        <time>2011-09-08T19:42:06Z</time>
      </trkpt>
      <trkpt lat="43.63157" lon="7.05641">
        <ele>93.462173461914</ele>
        <time>2011-09-08T19:42:09Z</time>
      </trkpt>
      <trkpt lat="43.63157" lon="7.05633">
        <ele>94.149284362793</ele>
        <time>2011-09-08T19:42:10Z</time>
      </trkpt>
      <trkpt lat="43.63161" lon="7.05605">
        <ele>97.044723510742</ele>
        <time>2011-09-08T19:42:13Z</time>
      </trkpt>
      <trkpt lat="43.63163" lon="7.05594">
        <ele>98.259216308594</ele>
        <time>2011-09-08T19:42:14Z</time>
      </trkpt>
      <trkpt lat="43.63167" lon="7.05567">
        <ele>99.549949645996</ele>
        <time>2011-09-08T19:42:18Z</time>
      </trkpt>
      <trkpt lat="43.63168" lon="7.05563">
        <ele>99.498115539551</ele>
        <time>2011-09-08T19:42:19Z</time>
      </trkpt>
      <trkpt lat="43.63169" lon="7.05558">
        <ele>99.434478759766</ele>
        <time>2011-09-08T19:42:20Z</time>
      </trkpt>
      <trkpt lat="43.63169" lon="7.05549">
        <ele>100.30377960205</ele>
        <time>2011-09-08T19:42:22Z</time>
      </trkpt>
      <trkpt lat="43.63167" lon="7.0554">
        <ele>102.2067489624</ele>
        <time>2011-09-08T19:42:26Z</time>
      </trkpt>
      <trkpt lat="43.63167" lon="7.05525">
        <ele>104.18154144287</ele>
        <time>2011-09-08T19:42:53Z</time>
      </trkpt>
      <trkpt lat="43.63174" lon="7.05508">
        <ele>104.65292358398</ele>
        <time>2011-09-08T19:42:57Z</time>
      </trkpt>
      <trkpt lat="43.63176" lon="7.05495">
        <ele>105.40370941162</ele>
        <time>2011-09-08T19:43:01Z</time>
      </trkpt>
      <trkpt lat="43.63186" lon="7.05471">
        <ele>104.22645568848</ele>
        <time>2011-09-08T19:43:07Z</time>
      </trkpt>
      <trkpt lat="43.63196" lon="7.05453">
        <ele>102.20992279053</ele>
        <time>2011-09-08T19:43:12Z</time>
      </trkpt>
      <trkpt lat="43.63205" lon="7.05439">
        <ele>100.75333404541</ele>
        <time>2011-09-08T19:43:16Z</time>
      </trkpt>
      <trkpt lat="43.63214" lon="7.05423">
        <ele>100.70780944824</ele>
        <time>2011-09-08T19:43:21Z</time>
      </trkpt>
      <trkpt lat="43.63223" lon="7.05405">
        <ele>99.780586242676</ele>
        <time>2011-09-08T19:43:26Z</time>
      </trkpt>
      <trkpt lat="43.63237" lon="7.05388">
        <ele>95.915176391602</ele>
        <time>2011-09-08T19:43:32Z</time>
      </trkpt>
      <trkpt lat="43.63251" lon="7.05378">
        <ele>93.62230682373</ele>
        <time>2011-09-08T19:43:37Z</time>
      </trkpt>
      <trkpt lat="43.63264" lon="7.05365">
        <ele>96.311500549316</ele>
        <time>2011-09-08T19:43:42Z</time>
      </trkpt>
      <trkpt lat="43.63276" lon="7.05351">
        <ele>99.574737548828</ele>
        <time>2011-09-08T19:43:47Z</time>
      </trkpt>
      <trkpt lat="43.63282" lon="7.05329">
        <ele>103.14659118652</ele>
        <time>2011-09-08T19:43:51Z</time>
      </trkpt>
      <trkpt lat="43.63289" lon="7.05302">
        <ele>104.9688873291</ele>
        <time>2011-09-08T19:43:55Z</time>
      </trkpt>
      <trkpt lat="43.63295" lon="7.05278">
        <ele>107.34296417236</ele>
        <time>2011-09-08T19:43:59Z</time>
      </trkpt>
      <trkpt lat="43.63297" lon="7.05276">
        <ele>107.43218994141</ele>
        <time>2011-09-08T19:44:01Z</time>
      </trkpt>
      <trkpt lat="43.63299" lon="7.05278">
        <ele>107.19361877441</ele>
        <time>2011-09-08T19:44:02Z</time>
      </trkpt>
      <trkpt lat="43.63304" lon="7.0529">
        <ele>105.70188140869</ele>
        <time>2011-09-08T19:44:06Z</time>
      </trkpt>
      <trkpt lat="43.63309" lon="7.05308">
        <ele>103.31024169922</ele>
        <time>2011-09-08T19:44:11Z</time>
      </trkpt>
      <trkpt lat="43.63317" lon="7.05324">
        <ele>100.50219726562</ele>
        <time>2011-09-08T19:44:17Z</time>
      </trkpt>
      <trkpt lat="43.63327" lon="7.05327">
        <ele>98.15160369873</ele>
        <time>2011-09-08T19:44:23Z</time>
      </trkpt>
      <trkpt lat="43.6333" lon="7.05325">
        <ele>97.883506774902</ele>
        <time>2011-09-08T19:44:25Z</time>
      </trkpt>
      <trkpt lat="43.6333" lon="7.05322">
        <ele>98.197151184082</ele>
        <time>2011-09-08T19:44:27Z</time>
      </trkpt>
      <trkpt lat="43.63332" lon="7.05319">
        <ele>98.260551452637</ele>
        <time>2011-09-08T19:44:30Z</time>
      </trkpt>
      <trkpt lat="43.63335" lon="7.05319">
        <ele>97.213928222656</ele>
        <time>2011-09-08T19:44:32Z</time>
      </trkpt>
      <trkpt lat="43.63341" lon="7.05317">
        <ele>93.206558227539</ele>
        <time>2011-09-08T19:44:38Z</time>
      </trkpt>
      <trkpt lat="43.6335" lon="7.05319">
        <ele>87.516403198242</ele>
        <time>2011-09-08T19:44:44Z</time>
      </trkpt>
      <trkpt lat="43.63352" lon="7.05319">
        <ele>86.0419921875</ele>
        <time>2011-09-08T19:44:45Z</time>
      </trkpt>
      <trkpt lat="43.63363" lon="7.05317">
        <ele>80</ele>
        <time>2011-09-08T19:44:48Z</time>
      </trkpt>
      <trkpt lat="43.63372" lon="7.0531">
        <ele>80</ele>
        <time>2011-09-08T19:44:51Z</time>
      </trkpt>
      <trkpt lat="43.63375" lon="7.05307">
        <ele>80</ele>
        <time>2011-09-08T19:44:52Z</time>
      </trkpt>
      <trkpt lat="43.63383" lon="7.05295">
        <ele>80.755462646484</ele>
        <time>2011-09-08T19:44:56Z</time>
      </trkpt>
      <trkpt lat="43.63393" lon="7.05264">
        <ele>81.55525970459</ele>
        <time>2011-09-08T19:45:02Z</time>
      </trkpt>
      <trkpt lat="43.634" lon="7.05234">
        <ele>82.567306518555</ele>
        <time>2011-09-08T19:45:07Z</time>
      </trkpt>
      <trkpt lat="43.63403" lon="7.05227">
        <ele>82.84196472168</ele>
        <time>2011-09-08T19:45:09Z</time>
      </trkpt>
      <trkpt lat="43.63404" lon="7.05215">
        <ele>83.264251708984</ele>
        <time>2011-09-08T19:45:12Z</time>
      </trkpt>
      <trkpt lat="43.63404" lon="7.05211">
        <ele>83.406730651855</ele>
        <time>2011-09-08T19:45:13Z</time>
      </trkpt>
      <trkpt lat="43.63408" lon="7.05195">
        <ele>83.997245788574</ele>
        <time>2011-09-08T19:45:17Z</time>
      </trkpt>
      <trkpt lat="43.63419" lon="7.05172">
        <ele>85.510818481445</ele>
        <time>2011-09-08T19:45:23Z</time>
      </trkpt>
      <trkpt lat="43.63437" lon="7.05148">
        <ele>92.586875915527</ele>
        <time>2011-09-08T19:45:30Z</time>
      </trkpt>
      <trkpt lat="43.63456" lon="7.05141">
        <ele>95.801879882812</ele>
        <time>2011-09-08T19:45:35Z</time>
      </trkpt>
      <trkpt lat="43.63466" lon="7.05129">
        <ele>96.921646118164</ele>
        <time>2011-09-08T19:45:39Z</time>
      </trkpt>
      <trkpt lat="43.63466" lon="7.05126">
        <ele>97.04524230957</ele>
        <time>2011-09-08T19:45:40Z</time>
      </trkpt>
      <trkpt lat="43.6347" lon="7.05113">
        <ele>97.762786865234</ele>
        <time>2011-09-08T19:45:44Z</time>
      </trkpt>
      <trkpt lat="43.6347" lon="7.05098">
        <ele>97.873046875</ele>
        <time>2011-09-08T19:45:48Z</time>
      </trkpt>
      <trkpt lat="43.63477" lon="7.05087">
        <ele>98</ele>
        <time>2011-09-08T19:45:53Z</time>
      </trkpt>
      <trkpt lat="43.63482" lon="7.05077">
        <ele>98</ele>
        <time>2011-09-08T19:45:57Z</time>
      </trkpt>
      <trkpt lat="43.6348" lon="7.05062">
        <ele>98</ele>
        <time>2011-09-08T19:46:02Z</time>
      </trkpt>
      <trkpt lat="43.63473" lon="7.05033">
        <ele>98.026496887207</ele>
        <time>2011-09-08T19:46:08Z</time>
      </trkpt>
      <trkpt lat="43.6347" lon="7.05015">
        <ele>98.278411865234</ele>
        <time>2011-09-08T19:46:12Z</time>
      </trkpt>
      <trkpt lat="43.6347" lon="7.04997">
        <ele>98.818115234375</ele>
        <time>2011-09-08T19:46:17Z</time>
      </trkpt>
      <trkpt lat="43.63468" lon="7.04992">
        <ele>98.708251953125</ele>
        <time>2011-09-08T19:46:19Z</time>
      </trkpt>
      <trkpt lat="43.63464" lon="7.04984">
        <ele>98.406127929688</ele>
        <time>2011-09-08T19:46:22Z</time>
      </trkpt>
      <trkpt lat="43.63463" lon="7.04976">
        <ele>98.32373046875</ele>
        <time>2011-09-08T19:46:24Z</time>
      </trkpt>
      <trkpt lat="43.63464" lon="7.04964">
        <ele>98.406127929688</ele>
        <time>2011-09-08T19:46:27Z</time>
      </trkpt>
      <trkpt lat="43.63463" lon="7.04955">
        <ele>98.32373046875</ele>
        <time>2011-09-08T19:46:30Z</time>
      </trkpt>
      <trkpt lat="43.6346" lon="7.0495">
        <ele>98.131469726562</ele>
        <time>2011-09-08T19:46:32Z</time>
      </trkpt>
      <trkpt lat="43.63455" lon="7.04941">
        <ele>97.7744140625</ele>
        <time>2011-09-08T19:46:36Z</time>
      </trkpt>
      <trkpt lat="43.63454" lon="7.04941">
        <ele>97.66455078125</ele>
        <time>2011-09-08T19:46:37Z</time>
      </trkpt>
      <trkpt lat="43.63449" lon="7.04944">
        <ele>97.3349609375</ele>
        <time>2011-09-08T19:46:41Z</time>
      </trkpt>
      <trkpt lat="43.63443" lon="7.04948">
        <ele>96.802444458008</ele>
        <time>2011-09-08T19:46:45Z</time>
      </trkpt>
      <trkpt lat="43.63447" lon="7.04957">
        <ele>97.170166015625</ele>
        <time>2011-09-08T19:46:49Z</time>
      </trkpt>
      <trkpt lat="43.63451" lon="7.04978">
        <ele>97.472290039062</ele>
        <time>2011-09-08T19:46:55Z</time>
      </trkpt>
      <trkpt lat="43.63452" lon="7.05003">
        <ele>97.430404663086</ele>
        <time>2011-09-08T19:47:02Z</time>
      </trkpt>
      <trkpt lat="43.63451" lon="7.05028">
        <ele>96.44482421875</ele>
        <time>2011-09-08T19:47:09Z</time>
      </trkpt>
      <trkpt lat="43.63443" lon="7.05057">
        <ele>95.689292907715</ele>
        <time>2011-09-08T19:47:17Z</time>
      </trkpt>
      <trkpt lat="43.63433" lon="7.05082">
        <ele>92.216087341309</ele>
        <time>2011-09-08T19:47:25Z</time>
      </trkpt>
      <trkpt lat="43.6342" lon="7.05101">
        <ele>88.237609863281</ele>
        <time>2011-09-08T19:47:32Z</time>
      </trkpt>
      <trkpt lat="43.63406" lon="7.05118">
        <ele>87.111000061035</ele>
        <time>2011-09-08T19:47:39Z</time>
      </trkpt>
      <trkpt lat="43.63403" lon="7.05123">
        <ele>87.050918579102</ele>
        <time>2011-09-08T19:47:41Z</time>
      </trkpt>
      <trkpt lat="43.63398" lon="7.05126">
        <ele>87.126449584961</ele>
        <time>2011-09-08T19:47:43Z</time>
      </trkpt>
      <trkpt lat="43.63394" lon="7.0513">
        <ele>87.12816619873</ele>
        <time>2011-09-08T19:47:45Z</time>
      </trkpt>
      <trkpt lat="43.63382" lon="7.05141">
        <ele>90.60538482666</ele>
        <time>2011-09-08T19:47:50Z</time>
      </trkpt>
      <trkpt lat="43.63361" lon="7.0515">
        <ele>101.65273284912</ele>
        <time>2011-09-08T19:47:58Z</time>
      </trkpt>
      <trkpt lat="43.63345" lon="7.05146">
        <ele>106.35823822022</ele>
        <time>2011-09-08T19:48:04Z</time>
      </trkpt>
      <trkpt lat="43.63329" lon="7.05133">
        <ele>111.64916992188</ele>
        <time>2011-09-08T19:48:11Z</time>
      </trkpt>
      <trkpt lat="43.63322" lon="7.05125">
        <ele>114.27558898926</ele>
        <time>2011-09-08T19:48:15Z</time>
      </trkpt>
      <trkpt lat="43.63321" lon="7.05122">
        <ele>114.50733184815</ele>
        <time>2011-09-08T19:48:16Z</time>
      </trkpt>
      <trkpt lat="43.63318" lon="7.05115">
        <ele>115.75531005859</ele>
        <time>2011-09-08T19:48:19Z</time>
      </trkpt>
      <trkpt lat="43.63318" lon="7.05112">
        <ele>115.85144042969</ele>
        <time>2011-09-08T19:48:20Z</time>
      </trkpt>
      <trkpt lat="43.63314" lon="7.05099">
        <ele>117.52181243897</ele>
        <time>2011-09-08T19:48:25Z</time>
      </trkpt>
      <trkpt lat="43.63307" lon="7.05076">
        <ele>119.9404296875</ele>
        <time>2011-09-08T19:48:32Z</time>
      </trkpt>
      <trkpt lat="43.63304" lon="7.0506">
        <ele>121.14775085449</ele>
        <time>2011-09-08T19:48:37Z</time>
      </trkpt>
      <trkpt lat="43.63298" lon="7.05038">
        <ele>122.69089508057</ele>
        <time>2011-09-08T19:48:44Z</time>
      </trkpt>
      <trkpt lat="43.63293" lon="7.05014">
        <ele>124.4381942749</ele>
        <time>2011-09-08T19:48:52Z</time>
      </trkpt>
      <trkpt lat="43.63289" lon="7.04994">
        <ele>126.12255096435</ele>
        <time>2011-09-08T19:48:59Z</time>
      </trkpt>
      <trkpt lat="43.63289" lon="7.04967">
        <ele>126.81410980225</ele>
        <time>2011-09-08T19:49:09Z</time>
      </trkpt>
      <trkpt lat="43.63286" lon="7.04949">
        <ele>128.84495544434</ele>
        <time>2011-09-08T19:49:15Z</time>
      </trkpt>
      <trkpt lat="43.63285" lon="7.04937">
        <ele>129.78778076172</ele>
        <time>2011-09-08T19:49:19Z</time>
      </trkpt>
      <trkpt lat="43.63288" lon="7.04936">
        <ele>128.37619018555</ele>
        <time>2011-09-08T19:49:21Z</time>
      </trkpt>
      <trkpt lat="43.63292" lon="7.04935">
        <ele>126.70208740234</ele>
        <time>2011-09-08T19:49:23Z</time>
      </trkpt>
      <trkpt lat="43.63294" lon="7.04933">
        <ele>125.64622497559</ele>
        <time>2011-09-08T19:49:25Z</time>
      </trkpt>
      <trkpt lat="43.63297" lon="7.04934">
        <ele>124.09543609619</ele>
        <time>2011-09-08T19:49:27Z</time>
      </trkpt>
      <trkpt lat="43.63305" lon="7.04931">
        <ele>120.13694000244</ele>
        <time>2011-09-08T19:49:32Z</time>
      </trkpt>
      <trkpt lat="43.63324" lon="7.04914">
        <ele>114.80517578125</ele>
        <time>2011-09-08T19:49:42Z</time>
      </trkpt>
      <trkpt lat="43.63326" lon="7.04911">
        <ele>114.14599609375</ele>
        <time>2011-09-08T19:49:44Z</time>
      </trkpt>
      <trkpt lat="43.63324" lon="7.04903">
        <ele>114.58544921875</ele>
        <time>2011-09-08T19:49:47Z</time>
      </trkpt>
      <trkpt lat="43.63322" lon="7.04899">
        <ele>115.3544921875</ele>
        <time>2011-09-08T19:49:49Z</time>
      </trkpt>
      <trkpt lat="43.63314" lon="7.04886">
        <ele>117.61840057373</ele>
        <time>2011-09-08T19:49:55Z</time>
      </trkpt>
      <trkpt lat="43.63309" lon="7.04867">
        <ele>119.09483337402</ele>
        <time>2011-09-08T19:50:02Z</time>
      </trkpt>
      <trkpt lat="43.63304" lon="7.04849">
        <ele>122.41972351074</ele>
        <time>2011-09-08T19:50:09Z</time>
      </trkpt>
      <trkpt lat="43.63292" lon="7.04823">
        <ele>131.89270019531</ele>
        <time>2011-09-08T19:50:19Z</time>
      </trkpt>
      <trkpt lat="43.63284" lon="7.04805">
        <ele>136.73481750488</ele>
        <time>2011-09-08T19:50:28Z</time>
      </trkpt>
      <trkpt lat="43.63282" lon="7.0479">
        <ele>138.49420166016</ele>
        <time>2011-09-08T19:50:34Z</time>
      </trkpt>
      <trkpt lat="43.63284" lon="7.04774">
        <ele>138.42752075195</ele>
        <time>2011-09-08T19:50:40Z</time>
      </trkpt>
      <trkpt lat="43.63285" lon="7.04755">
        <ele>139.27981567383</ele>
        <time>2011-09-08T19:50:47Z</time>
      </trkpt>
      <trkpt lat="43.63287" lon="7.04729">
        <ele>140.11242675781</ele>
        <time>2011-09-08T19:50:56Z</time>
      </trkpt>
      <trkpt lat="43.63292" lon="7.04705">
        <ele>139.37716674805</ele>
        <time>2011-09-08T19:51:04Z</time>
      </trkpt>
      <trkpt lat="43.63297" lon="7.04677">
        <ele>137.30737304688</ele>
        <time>2011-09-08T19:51:12Z</time>
      </trkpt>
      <trkpt lat="43.63304" lon="7.04655">
        <ele>133.06663513184</ele>
        <time>2011-09-08T19:51:19Z</time>
      </trkpt>
      <trkpt lat="43.63314" lon="7.04638">
        <ele>128.9083404541</ele>
        <time>2011-09-08T19:51:25Z</time>
      </trkpt>
      <trkpt lat="43.63326" lon="7.04621">
        <ele>125.14723968506</ele>
        <time>2011-09-08T19:51:31Z</time>
      </trkpt>
      <trkpt lat="43.63343" lon="7.04602">
        <ele>120.61050415039</ele>
        <time>2011-09-08T19:51:38Z</time>
      </trkpt>
      <trkpt lat="43.63356" lon="7.04573">
        <ele>117.90981292725</ele>
        <time>2011-09-08T19:51:45Z</time>
      </trkpt>
      <trkpt lat="43.6336" lon="7.04543">
        <ele>117.16362762451</ele>
        <time>2011-09-08T19:51:52Z</time>
      </trkpt>
      <trkpt lat="43.63356" lon="7.04517">
        <ele>117.87020874023</ele>
        <time>2011-09-08T19:51:58Z</time>
      </trkpt>
      <trkpt lat="43.63353" lon="7.04477">
        <ele>118.61389160156</ele>
        <time>2011-09-08T19:52:07Z</time>
      </trkpt>
      <trkpt lat="43.63348" lon="7.04442">
        <ele>118.51232910156</ele>
        <time>2011-09-08T19:52:15Z</time>
      </trkpt>
      <trkpt lat="43.63337" lon="7.04401">
        <ele>119</ele>
        <time>2011-09-08T19:52:25Z</time>
      </trkpt>
      <trkpt lat="43.6332" lon="7.04369">
        <ele>119.13422393799</ele>
        <time>2011-09-08T19:52:33Z</time>
      </trkpt>
      <trkpt lat="43.63301" lon="7.04343">
        <ele>119.58748626709</ele>
        <time>2011-09-08T19:52:41Z</time>
      </trkpt>
      <trkpt lat="43.63284" lon="7.04318">
        <ele>120.24027252197</ele>
        <time>2011-09-08T19:52:49Z</time>
      </trkpt>
      <trkpt lat="43.6327" lon="7.04299">
        <ele>122.66701507568</ele>
        <time>2011-09-08T19:52:57Z</time>
      </trkpt>
      <trkpt lat="43.63252" lon="7.04283">
        <ele>124.87816619873</ele>
        <time>2011-09-08T19:53:06Z</time>
      </trkpt>
      <trkpt lat="43.63243" lon="7.04266">
        <ele>125.39453125</ele>
        <time>2011-09-08T19:53:12Z</time>
      </trkpt>
      <trkpt lat="43.63237" lon="7.04247">
        <ele>124.7321472168</ele>
        <time>2011-09-08T19:53:19Z</time>
      </trkpt>
      <trkpt lat="43.63231" lon="7.0423">
        <ele>124.97883605957</ele>
        <time>2011-09-08T19:53:25Z</time>
      </trkpt>
      <trkpt lat="43.63218" lon="7.04208">
        <ele>125.00177764893</ele>
        <time>2011-09-08T19:53:33Z</time>
      </trkpt>
      <trkpt lat="43.63205" lon="7.04186">
        <ele>127.83097076416</ele>
        <time>2011-09-08T19:53:41Z</time>
      </trkpt>
      <trkpt lat="43.63195" lon="7.0417">
        <ele>127.75698852539</ele>
        <time>2011-09-08T19:53:47Z</time>
      </trkpt>
      <trkpt lat="43.63185" lon="7.04148">
        <ele>126.70323181152</ele>
        <time>2011-09-08T19:53:55Z</time>
      </trkpt>
      <trkpt lat="43.63172" lon="7.04116">
        <ele>124.30202484131</ele>
        <time>2011-09-08T19:54:06Z</time>
      </trkpt>
      <trkpt lat="43.6316" lon="7.04096">
        <ele>124.93748474121</ele>
        <time>2011-09-08T19:54:14Z</time>
      </trkpt>
      <trkpt lat="43.63149" lon="7.04078">
        <ele>127.63920593262</ele>
        <time>2011-09-08T19:54:21Z</time>
      </trkpt>
      <trkpt lat="43.63134" lon="7.04053">
        <ele>130.20748901367</ele>
        <time>2011-09-08T19:54:29Z</time>
      </trkpt>
      <trkpt lat="43.6312" lon="7.04028">
        <ele>130.02735900879</ele>
        <time>2011-09-08T19:54:35Z</time>
      </trkpt>
      <trkpt lat="43.63105" lon="7.04005">
        <ele>134.43965148926</ele>
        <time>2011-09-08T19:54:41Z</time>
      </trkpt>
      <trkpt lat="43.63089" lon="7.03984">
        <ele>137.86071777344</ele>
        <time>2011-09-08T19:54:47Z</time>
      </trkpt>
      <trkpt lat="43.6307" lon="7.03952">
        <ele>148.78300476074</ele>
        <time>2011-09-08T19:54:55Z</time>
      </trkpt>
      <trkpt lat="43.63057" lon="7.03918">
        <ele>159.2413482666</ele>
        <time>2011-09-08T19:55:02Z</time>
      </trkpt>
      <trkpt lat="43.63058" lon="7.03912">
        <ele>158.44970703125</ele>
        <time>2011-09-08T19:55:03Z</time>
      </trkpt>
      <trkpt lat="43.63064" lon="7.03902">
        <ele>153.78051757812</ele>
        <time>2011-09-08T19:55:05Z</time>
      </trkpt>
      <trkpt lat="43.63083" lon="7.03874">
        <ele>142.08796691894</ele>
        <time>2011-09-08T19:55:12Z</time>
      </trkpt>
      <trkpt lat="43.63097" lon="7.03852">
        <ele>137.5828704834</ele>
        <time>2011-09-08T19:55:19Z</time>
      </trkpt>
      <trkpt lat="43.63105" lon="7.03831">
        <ele>135.12878417969</ele>
        <time>2011-09-08T19:55:25Z</time>
      </trkpt>
      <trkpt lat="43.63106" lon="7.03807">
        <ele>135.12467956543</ele>
        <time>2011-09-08T19:55:31Z</time>
      </trkpt>
      <trkpt lat="43.63106" lon="7.03786">
        <ele>134.81729125977</ele>
        <time>2011-09-08T19:55:38Z</time>
      </trkpt>
      <trkpt lat="43.631" lon="7.03765">
        <ele>135.87121582031</ele>
        <time>2011-09-08T19:55:44Z</time>
      </trkpt>
      <trkpt lat="43.6309" lon="7.03752">
        <ele>137.29335021973</ele>
        <time>2011-09-08T19:55:50Z</time>
      </trkpt>
      <trkpt lat="43.63075" lon="7.03737">
        <ele>139.50590515137</ele>
        <time>2011-09-08T19:55:58Z</time>
      </trkpt>
      <trkpt lat="43.63064" lon="7.03726">
        <ele>140.43299865723</ele>
        <time>2011-09-08T19:56:05Z</time>
      </trkpt>
      <trkpt lat="43.63056" lon="7.03718">
        <ele>140.6955871582</ele>
        <time>2011-09-08T19:56:10Z</time>
      </trkpt>
      <trkpt lat="43.63043" lon="7.03707">
        <ele>143.61824035644</ele>
        <time>2011-09-08T19:56:18Z</time>
      </trkpt>
      <trkpt lat="43.63028" lon="7.03697">
        <ele>145.4111328125</ele>
        <time>2011-09-08T19:56:26Z</time>
      </trkpt>
      <trkpt lat="43.63015" lon="7.03686">
        <ele>149.32342529297</ele>
        <time>2011-09-08T19:56:33Z</time>
      </trkpt>
      <trkpt lat="43.63002" lon="7.03675">
        <ele>153.26979064941</ele>
        <time>2011-09-08T19:56:40Z</time>
      </trkpt>
      <trkpt lat="43.62992" lon="7.03665">
        <ele>155.62818908691</ele>
        <time>2011-09-08T19:56:46Z</time>
      </trkpt>
      <trkpt lat="43.62979" lon="7.03653">
        <ele>158.75471496582</ele>
        <time>2011-09-08T19:56:53Z</time>
      </trkpt>
      <trkpt lat="43.62966" lon="7.03639">
        <ele>162.20135498047</ele>
        <time>2011-09-08T19:57:01Z</time>
      </trkpt>
      <trkpt lat="43.62954" lon="7.03631">
        <ele>165.62767028809</ele>
        <time>2011-09-08T19:57:07Z</time>
      </trkpt>
      <trkpt lat="43.62941" lon="7.03622">
        <ele>168.67854309082</ele>
        <time>2011-09-08T19:57:13Z</time>
      </trkpt>
      <trkpt lat="43.62926" lon="7.03611">
        <ele>173.39184570312</ele>
        <time>2011-09-08T19:57:21Z</time>
      </trkpt>
      <trkpt lat="43.62909" lon="7.03598">
        <ele>178.72067260742</ele>
        <time>2011-09-08T19:57:28Z</time>
      </trkpt>
      <trkpt lat="43.62886" lon="7.0359">
        <ele>185.04414367676</ele>
        <time>2011-09-08T19:57:35Z</time>
      </trkpt>
      <trkpt lat="43.62867" lon="7.0358">
        <ele>192.88623046875</ele>
        <time>2011-09-08T19:57:42Z</time>
      </trkpt>
      <trkpt lat="43.62842" lon="7.03565">
        <ele>198.51918029785</ele>
        <time>2011-09-08T19:57:51Z</time>
      </trkpt>
      <trkpt lat="43.62837" lon="7.03557">
        <ele>199.37582397461</ele>
        <time>2011-09-08T19:57:54Z</time>
      </trkpt>
      <trkpt lat="43.62837" lon="7.03551">
        <ele>199.27546691894</ele>
        <time>2011-09-08T19:57:56Z</time>
      </trkpt>
      <trkpt lat="43.62841" lon="7.03536">
        <ele>198.33724975586</ele>
        <time>2011-09-08T19:58:00Z</time>
      </trkpt>
      <trkpt lat="43.62844" lon="7.03528">
        <ele>197.68156433106</ele>
        <time>2011-09-08T19:58:02Z</time>
      </trkpt>
      <trkpt lat="43.62858" lon="7.03502">
        <ele>193.04411315918</ele>
        <time>2011-09-08T19:58:09Z</time>
      </trkpt>
      <trkpt lat="43.6288" lon="7.03464">
        <ele>181.26062011719</ele>
        <time>2011-09-08T19:58:18Z</time>
      </trkpt>
      <trkpt lat="43.62899" lon="7.03431">
        <ele>174.12176513672</ele>
        <time>2011-09-08T19:58:24Z</time>
      </trkpt>
      <trkpt lat="43.62907" lon="7.03411">
        <ele>170.40069580078</ele>
        <time>2011-09-08T19:58:28Z</time>
      </trkpt>
      <trkpt lat="43.62909" lon="7.03405">
        <ele>169.06369018555</ele>
        <time>2011-09-08T19:58:30Z</time>
      </trkpt>
      <trkpt lat="43.62909" lon="7.03404">
        <ele>169.46484375</ele>
        <time>2011-09-08T19:58:32Z</time>
      </trkpt>
      <trkpt lat="43.62908" lon="7.03406">
        <ele>169.72402954102</ele>
        <time>2011-09-08T19:58:33Z</time>
      </trkpt>
      <trkpt lat="43.62905" lon="7.03404">
        <ele>171.47712707519</ele>
        <time>2011-09-08T19:58:36Z</time>
      </trkpt>
      <trkpt lat="43.62903" lon="7.03398">
        <ele>172.30625915527</ele>
        <time>2011-09-08T19:58:42Z</time>
      </trkpt>
      <trkpt lat="43.62901" lon="7.03384">
        <ele>172.92301940918</ele>
        <time>2011-09-08T19:58:46Z</time>
      </trkpt>
      <trkpt lat="43.62898" lon="7.03354">
        <ele>171.78465270996</ele>
        <time>2011-09-08T19:58:51Z</time>
      </trkpt>
      <trkpt lat="43.62898" lon="7.03322">
        <ele>168.8136138916</ele>
        <time>2011-09-08T19:58:56Z</time>
      </trkpt>
      <trkpt lat="43.62892" lon="7.03299">
        <ele>169.25411987305</ele>
        <time>2011-09-08T19:59:01Z</time>
      </trkpt>
      <trkpt lat="43.62891" lon="7.03298">
        <ele>169.78193664551</ele>
        <time>2011-09-08T19:59:02Z</time>
      </trkpt>
      <trkpt lat="43.62886" lon="7.0329">
        <ele>171.22030639648</ele>
        <time>2011-09-08T19:59:05Z</time>
      </trkpt>
      <trkpt lat="43.6288" lon="7.03286">
        <ele>173.33381652832</ele>
        <time>2011-09-08T19:59:07Z</time>
      </trkpt>
      <trkpt lat="43.62875" lon="7.03276">
        <ele>174.90371704102</ele>
        <time>2011-09-08T19:59:09Z</time>
      </trkpt>
      <trkpt lat="43.62874" lon="7.03274">
        <ele>175.07261657715</ele>
        <time>2011-09-08T19:59:10Z</time>
      </trkpt>
      <trkpt lat="43.62872" lon="7.03267">
        <ele>175.43141174316</ele>
        <time>2011-09-08T19:59:15Z</time>
      </trkpt>
      <trkpt lat="43.6287" lon="7.03264">
        <ele>176.35136413574</ele>
        <time>2011-09-08T19:59:16Z</time>
      </trkpt>
      <trkpt lat="43.62864" lon="7.03256">
        <ele>179.04489135742</ele>
        <time>2011-09-08T19:59:19Z</time>
      </trkpt>
      <trkpt lat="43.62854" lon="7.03245">
        <ele>182.08673095703</ele>
        <time>2011-09-08T19:59:23Z</time>
      </trkpt>
      <trkpt lat="43.62851" lon="7.03241">
        <ele>182.6637878418</ele>
        <time>2011-09-08T19:59:27Z</time>
      </trkpt>
      <trkpt lat="43.6285" lon="7.03234">
        <ele>182.30351257324</ele>
        <time>2011-09-08T19:59:34Z</time>
      </trkpt>
      <trkpt lat="43.62852" lon="7.03219">
        <ele>180.20906066894</ele>
        <time>2011-09-08T19:59:39Z</time>
      </trkpt>
      <trkpt lat="43.62857" lon="7.032">
        <ele>177.31985473633</ele>
        <time>2011-09-08T19:59:44Z</time>
      </trkpt>
      <trkpt lat="43.62865" lon="7.03184">
        <ele>173.04202270508</ele>
        <time>2011-09-08T19:59:48Z</time>
      </trkpt>
      <trkpt lat="43.62869" lon="7.03177">
        <ele>170.07229614258</ele>
        <time>2011-09-08T19:59:50Z</time>
      </trkpt>
      <trkpt lat="43.62873" lon="7.03173">
        <ele>167.89236450195</ele>
        <time>2011-09-08T19:59:52Z</time>
      </trkpt>
      <trkpt lat="43.62874" lon="7.03169">
        <ele>167.19003295898</ele>
        <time>2011-09-08T19:59:53Z</time>
      </trkpt>
      <trkpt lat="43.62876" lon="7.03157">
        <ele>165.81742858887</ele>
        <time>2011-09-08T19:59:55Z</time>
      </trkpt>
      <trkpt lat="43.62881" lon="7.03126">
        <ele>162.49739074707</ele>
        <time>2011-09-08T20:00:01Z</time>
      </trkpt>
      <trkpt lat="43.62883" lon="7.03093">
        <ele>160.60174560547</ele>
        <time>2011-09-08T20:00:06Z</time>
      </trkpt>
      <trkpt lat="43.62874" lon="7.03068">
        <ele>161.65124511719</ele>
        <time>2011-09-08T20:00:10Z</time>
      </trkpt>
      <trkpt lat="43.62873" lon="7.0306">
        <ele>161.46907043457</ele>
        <time>2011-09-08T20:00:11Z</time>
      </trkpt>
      <trkpt lat="43.62877" lon="7.03046">
        <ele>160.33578491211</ele>
        <time>2011-09-08T20:00:14Z</time>
      </trkpt>
      <trkpt lat="43.62878" lon="7.03041">
        <ele>159.9998626709</ele>
        <time>2011-09-08T20:00:15Z</time>
      </trkpt>
      <trkpt lat="43.62878" lon="7.03036">
        <ele>159.72245788574</ele>
        <time>2011-09-08T20:00:16Z</time>
      </trkpt>
      <trkpt lat="43.62882" lon="7.03024">
        <ele>159.23962402344</ele>
        <time>2011-09-08T20:00:19Z</time>
      </trkpt>
      <trkpt lat="43.62886" lon="7.03002">
        <ele>159.11602783203</ele>
        <time>2011-09-08T20:00:24Z</time>
      </trkpt>
      <trkpt lat="43.62889" lon="7.02988">
        <ele>159</ele>
        <time>2011-09-08T20:00:28Z</time>
      </trkpt>
      <trkpt lat="43.62891" lon="7.0297">
        <ele>159</ele>
        <time>2011-09-08T20:00:33Z</time>
      </trkpt>
      <trkpt lat="43.62893" lon="7.02951">
        <ele>159</ele>
        <time>2011-09-08T20:00:36Z</time>
      </trkpt>
      <trkpt lat="43.62897" lon="7.02925">
        <ele>159</ele>
        <time>2011-09-08T20:00:40Z</time>
      </trkpt>
      <trkpt lat="43.62894" lon="7.02911">
        <ele>159.19900512695</ele>
        <time>2011-09-08T20:00:42Z</time>
      </trkpt>
      <trkpt lat="43.62893" lon="7.029">
        <ele>159.60070800781</ele>
        <time>2011-09-08T20:00:44Z</time>
      </trkpt>
      <trkpt lat="43.62894" lon="7.02886">
        <ele>160</ele>
        <time>2011-09-08T20:00:46Z</time>
      </trkpt>
      <trkpt lat="43.62894" lon="7.02875">
        <ele>160</ele>
        <time>2011-09-08T20:00:48Z</time>
      </trkpt>
      <trkpt lat="43.62894" lon="7.02871">
        <ele>160</ele>
        <time>2011-09-08T20:00:49Z</time>
      </trkpt>
      <trkpt lat="43.62894" lon="7.02858">
        <ele>160</ele>
        <time>2011-09-08T20:00:52Z</time>
      </trkpt>
      <trkpt lat="43.62894" lon="7.02852">
        <ele>160</ele>
        <time>2011-09-08T20:00:53Z</time>
      </trkpt>
      <trkpt lat="43.6289" lon="7.02821">
        <ele>160</ele>
        <time>2011-09-08T20:00:58Z</time>
      </trkpt>
      <trkpt lat="43.62885" lon="7.02806">
        <ele>160</ele>
        <time>2011-09-08T20:01:02Z</time>
      </trkpt>
      <trkpt lat="43.62878" lon="7.02789">
        <ele>160</ele>
        <time>2011-09-08T20:01:06Z</time>
      </trkpt>
      <trkpt lat="43.6287" lon="7.0277">
        <ele>160</ele>
        <time>2011-09-08T20:01:11Z</time>
      </trkpt>
      <trkpt lat="43.62868" lon="7.02769">
        <ele>160</ele>
        <time>2011-09-08T20:01:13Z</time>
      </trkpt>
      <trkpt lat="43.62867" lon="7.02769">
        <ele>160</ele>
        <time>2011-09-08T20:01:14Z</time>
      </trkpt>
      <trkpt lat="43.6287" lon="7.0277">
        <ele>160</ele>
        <time>2011-09-08T20:01:18Z</time>
      </trkpt>
      <trkpt lat="43.62877" lon="7.02771">
        <ele>160</ele>
        <time>2011-09-08T20:01:23Z</time>
      </trkpt>
      <trkpt lat="43.62886" lon="7.02774">
        <ele>160</ele>
        <time>2011-09-08T20:01:27Z</time>
      </trkpt>
      <trkpt lat="43.62897" lon="7.02787">
        <ele>160</ele>
        <time>2011-09-08T20:01:33Z</time>
      </trkpt>
      <trkpt lat="43.62906" lon="7.02798">
        <ele>160</ele>
        <time>2011-09-08T20:01:37Z</time>
      </trkpt>
      <trkpt lat="43.62908" lon="7.02798">
        <ele>160</ele>
        <time>2011-09-08T20:01:38Z</time>
      </trkpt>
      <trkpt lat="43.62914" lon="7.02794">
        <ele>160</ele>
        <time>2011-09-08T20:01:40Z</time>
      </trkpt>
      <trkpt lat="43.62924" lon="7.02791">
        <ele>160</ele>
        <time>2011-09-08T20:01:43Z</time>
      </trkpt>
      <trkpt lat="43.62934" lon="7.02788">
        <ele>160</ele>
        <time>2011-09-08T20:01:46Z</time>
      </trkpt>
      <trkpt lat="43.62946" lon="7.02784">
        <ele>159.98793029785</ele>
        <time>2011-09-08T20:01:51Z</time>
      </trkpt>
      <trkpt lat="43.62965" lon="7.02771">
        <ele>160.63485717773</ele>
        <time>2011-09-08T20:01:59Z</time>
      </trkpt>
      <trkpt lat="43.62978" lon="7.02751">
        <ele>161.52885437012</ele>
        <time>2011-09-08T20:02:06Z</time>
      </trkpt>
      <trkpt lat="43.6299" lon="7.02733">
        <ele>163.47515869141</ele>
        <time>2011-09-08T20:02:13Z</time>
      </trkpt>
      <trkpt lat="43.63006" lon="7.02708">
        <ele>165.14595031738</ele>
        <time>2011-09-08T20:02:22Z</time>
      </trkpt>
      <trkpt lat="43.63018" lon="7.02681">
        <ele>165.68598937988</ele>
        <time>2011-09-08T20:02:31Z</time>
      </trkpt>
      <trkpt lat="43.63028" lon="7.02656">
        <ele>166.15199279785</ele>
        <time>2011-09-08T20:02:40Z</time>
      </trkpt>
      <trkpt lat="43.63034" lon="7.02639">
        <ele>167.29563903809</ele>
        <time>2011-09-08T20:02:45Z</time>
      </trkpt>
      <trkpt lat="43.63043" lon="7.02608">
        <ele>168.96606445312</ele>
        <time>2011-09-08T20:02:53Z</time>
      </trkpt>
      <trkpt lat="43.63056" lon="7.02593">
        <ele>168.29879760742</ele>
        <time>2011-09-08T20:02:58Z</time>
      </trkpt>
      <trkpt lat="43.63071" lon="7.02571">
        <ele>169.62072753906</ele>
        <time>2011-09-08T20:03:02Z</time>
      </trkpt>
      <trkpt lat="43.63087" lon="7.02545">
        <ele>171.08320617676</ele>
        <time>2011-09-08T20:03:06Z</time>
      </trkpt>
      <trkpt lat="43.63093" lon="7.02542">
        <ele>171.80853271484</ele>
        <time>2011-09-08T20:03:07Z</time>
      </trkpt>
      <trkpt lat="43.63109" lon="7.02543">
        <ele>173.24528503418</ele>
        <time>2011-09-08T20:03:10Z</time>
      </trkpt>
      <trkpt lat="43.63118" lon="7.02545">
        <ele>174.76023864746</ele>
        <time>2011-09-08T20:03:12Z</time>
      </trkpt>
      <trkpt lat="43.63126" lon="7.02546">
        <ele>176.45199584961</ele>
        <time>2011-09-08T20:03:14Z</time>
      </trkpt>
      <trkpt lat="43.6313" lon="7.02546">
        <ele>177.22862243652</ele>
        <time>2011-09-08T20:03:15Z</time>
      </trkpt>
      <trkpt lat="43.63137" lon="7.02546">
        <ele>178.54750061035</ele>
        <time>2011-09-08T20:03:17Z</time>
      </trkpt>
      <trkpt lat="43.63146" lon="7.02549">
        <ele>179.26354980469</ele>
        <time>2011-09-08T20:03:20Z</time>
      </trkpt>
      <trkpt lat="43.63149" lon="7.02551">
        <ele>179.35968017578</ele>
        <time>2011-09-08T20:03:21Z</time>
      </trkpt>
      <trkpt lat="43.63156" lon="7.0256">
        <ele>179.56582641602</ele>
        <time>2011-09-08T20:03:24Z</time>
      </trkpt>
      <trkpt lat="43.63161" lon="7.02571">
        <ele>179.66857910156</ele>
        <time>2011-09-08T20:03:27Z</time>
      </trkpt>
      <trkpt lat="43.63165" lon="7.02595">
        <ele>179.87292480469</ele>
        <time>2011-09-08T20:03:33Z</time>
      </trkpt>
      <trkpt lat="43.63159" lon="7.02616">
        <ele>179.4609375</ele>
        <time>2011-09-08T20:03:38Z</time>
      </trkpt>
      <trkpt lat="43.63146" lon="7.02643">
        <ele>178.49963378906</ele>
        <time>2011-09-08T20:03:46Z</time>
      </trkpt>
      <trkpt lat="43.63138" lon="7.02669">
        <ele>177.80126953125</ele>
        <time>2011-09-08T20:03:53Z</time>
      </trkpt>
      <trkpt lat="43.63128" lon="7.027">
        <ele>174.64752197266</ele>
        <time>2011-09-08T20:04:02Z</time>
      </trkpt>
      <trkpt lat="43.63119" lon="7.02719">
        <ele>171.67984008789</ele>
        <time>2011-09-08T20:04:08Z</time>
      </trkpt>
      <trkpt lat="43.63109" lon="7.02747">
        <ele>168.58874511719</ele>
        <time>2011-09-08T20:04:16Z</time>
      </trkpt>
      <trkpt lat="43.63102" lon="7.02772">
        <ele>169.88687133789</ele>
        <time>2011-09-08T20:04:23Z</time>
      </trkpt>
      <trkpt lat="43.63092" lon="7.028">
        <ele>172.26937866211</ele>
        <time>2011-09-08T20:04:31Z</time>
      </trkpt>
      <trkpt lat="43.63082" lon="7.02833">
        <ele>174.02828979492</ele>
        <time>2011-09-08T20:04:40Z</time>
      </trkpt>
      <trkpt lat="43.63078" lon="7.02861">
        <ele>175.84298706055</ele>
        <time>2011-09-08T20:04:48Z</time>
      </trkpt>
      <trkpt lat="43.63081" lon="7.02893">
        <ele>180.72964477539</ele>
        <time>2011-09-08T20:04:56Z</time>
      </trkpt>
      <trkpt lat="43.63087" lon="7.02925">
        <ele>185.77043151856</ele>
        <time>2011-09-08T20:05:04Z</time>
      </trkpt>
      <trkpt lat="43.63095" lon="7.0295">
        <ele>190.96105957031</ele>
        <time>2011-09-08T20:05:10Z</time>
      </trkpt>
      <trkpt lat="43.63104" lon="7.02978">
        <ele>196.76959228516</ele>
        <time>2011-09-08T20:05:17Z</time>
      </trkpt>
      <trkpt lat="43.63105" lon="7.03004">
        <ele>199.62789916992</ele>
        <time>2011-09-08T20:05:24Z</time>
      </trkpt>
      <trkpt lat="43.63111" lon="7.03034">
        <ele>200.09698486328</ele>
        <time>2011-09-08T20:05:31Z</time>
      </trkpt>
      <trkpt lat="43.63117" lon="7.0306">
        <ele>201.44281005859</ele>
        <time>2011-09-08T20:05:37Z</time>
      </trkpt>
      <trkpt lat="43.63124" lon="7.03096">
        <ele>203.17315673828</ele>
        <time>2011-09-08T20:05:45Z</time>
      </trkpt>
      <trkpt lat="43.63123" lon="7.03124">
        <ele>202.98089599609</ele>
        <time>2011-09-08T20:05:50Z</time>
      </trkpt>
      <trkpt lat="43.63127" lon="7.0315">
        <ele>204.03833007812</ele>
        <time>2011-09-08T20:05:54Z</time>
      </trkpt>
      <trkpt lat="43.63129" lon="7.03156">
        <ele>204.51898193359</ele>
        <time>2011-09-08T20:05:55Z</time>
      </trkpt>
      <trkpt lat="43.63142" lon="7.03189">
        <ele>206.9450378418</ele>
        <time>2011-09-08T20:06:01Z</time>
      </trkpt>
      <trkpt lat="43.63157" lon="7.03228">
        <ele>208.54475402832</ele>
        <time>2011-09-08T20:06:08Z</time>
      </trkpt>
      <trkpt lat="43.63163" lon="7.03247">
        <ele>208.43832397461</ele>
        <time>2011-09-08T20:06:11Z</time>
      </trkpt>
      <trkpt lat="43.63166" lon="7.0326">
        <ele>208.09730529785</ele>
        <time>2011-09-08T20:06:13Z</time>
      </trkpt>
      <trkpt lat="43.63175" lon="7.03306">
        <ele>206.86518859863</ele>
        <time>2011-09-08T20:06:21Z</time>
      </trkpt>
      <trkpt lat="43.63185" lon="7.03346">
        <ele>205.10737609863</ele>
        <time>2011-09-08T20:06:29Z</time>
      </trkpt>
      <trkpt lat="43.63191" lon="7.0335">
        <ele>205.44383239746</ele>
        <time>2011-09-08T20:06:32Z</time>
      </trkpt>
      <trkpt lat="43.63193" lon="7.03349">
        <ele>205.75968933106</ele>
        <time>2011-09-08T20:06:33Z</time>
      </trkpt>
      <trkpt lat="43.63196" lon="7.03337">
        <ele>207.01701354981</ele>
        <time>2011-09-08T20:06:37Z</time>
      </trkpt>
      <trkpt lat="43.63194" lon="7.03321">
        <ele>207.80589294434</ele>
        <time>2011-09-08T20:06:42Z</time>
      </trkpt>
      <trkpt lat="43.63196" lon="7.03301">
        <ele>209.67509460449</ele>
        <time>2011-09-08T20:06:49Z</time>
      </trkpt>
      <trkpt lat="43.63199" lon="7.03284">
        <ele>211.34364318848</ele>
        <time>2011-09-08T20:06:55Z</time>
      </trkpt>
      <trkpt lat="43.63202" lon="7.03272">
        <ele>212.82170104981</ele>
        <time>2011-09-08T20:06:59Z</time>
      </trkpt>
      <trkpt lat="43.63206" lon="7.03269">
        <ele>213.76448059082</ele>
        <time>2011-09-08T20:07:01Z</time>
      </trkpt>
      <trkpt lat="43.6321" lon="7.03277">
        <ele>213.91510009766</ele>
        <time>2011-09-08T20:07:05Z</time>
      </trkpt>
      <trkpt lat="43.63211" lon="7.03283">
        <ele>213.62330627441</ele>
        <time>2011-09-08T20:07:07Z</time>
      </trkpt>
      <trkpt lat="43.63215" lon="7.03295">
        <ele>213.47567749023</ele>
        <time>2011-09-08T20:07:12Z</time>
      </trkpt>
      <trkpt lat="43.63223" lon="7.03311">
        <ele>213.48704528809</ele>
        <time>2011-09-08T20:07:19Z</time>
      </trkpt>
      <trkpt lat="43.63235" lon="7.03314">
        <ele>214.97534179688</ele>
        <time>2011-09-08T20:07:26Z</time>
      </trkpt>
      <trkpt lat="43.63247" lon="7.0331">
        <ele>217.04559326172</ele>
        <time>2011-09-08T20:07:32Z</time>
      </trkpt>
      <trkpt lat="43.63261" lon="7.03299">
        <ele>220.87138366699</ele>
        <time>2011-09-08T20:07:40Z</time>
      </trkpt>
      <trkpt lat="43.63274" lon="7.03284">
        <ele>225.27708435059</ele>
        <time>2011-09-08T20:07:48Z</time>
      </trkpt>
      <trkpt lat="43.63284" lon="7.03273">
        <ele>227.98059082031</ele>
        <time>2011-09-08T20:07:54Z</time>
      </trkpt>
      <trkpt lat="43.63295" lon="7.0326">
        <ele>230.38410949707</ele>
        <time>2011-09-08T20:08:01Z</time>
      </trkpt>
      <trkpt lat="43.63306" lon="7.03249">
        <ele>232.09573364258</ele>
        <time>2011-09-08T20:08:07Z</time>
      </trkpt>
      <trkpt lat="43.63321" lon="7.03238">
        <ele>232.19873046875</ele>
        <time>2011-09-08T20:08:14Z</time>
      </trkpt>
      <trkpt lat="43.63338" lon="7.03225">
        <ele>231.59468078613</ele>
        <time>2011-09-08T20:08:21Z</time>
      </trkpt>
      <trkpt lat="43.63361" lon="7.03204">
        <ele>227.48091125488</ele>
        <time>2011-09-08T20:08:29Z</time>
      </trkpt>
      <trkpt lat="43.63377" lon="7.03187">
        <ele>224.97113037109</ele>
        <time>2011-09-08T20:08:35Z</time>
      </trkpt>
      <trkpt lat="43.63396" lon="7.03162">
        <ele>222.30641174316</ele>
        <time>2011-09-08T20:08:42Z</time>
      </trkpt>
      <trkpt lat="43.63408" lon="7.03137">
        <ele>221.22552490234</ele>
        <time>2011-09-08T20:08:48Z</time>
      </trkpt>
      <trkpt lat="43.63416" lon="7.03111">
        <ele>220.20512390137</ele>
        <time>2011-09-08T20:08:55Z</time>
      </trkpt>
      <trkpt lat="43.63421" lon="7.0309">
        <ele>218.30104064941</ele>
        <time>2011-09-08T20:09:01Z</time>
      </trkpt>
      <trkpt lat="43.63425" lon="7.0306">
        <ele>215.83831787109</ele>
        <time>2011-09-08T20:09:09Z</time>
      </trkpt>
      <trkpt lat="43.63425" lon="7.03024">
        <ele>214.48226928711</ele>
        <time>2011-09-08T20:09:18Z</time>
      </trkpt>
      <trkpt lat="43.63427" lon="7.02987">
        <ele>213.20948791504</ele>
        <time>2011-09-08T20:09:27Z</time>
      </trkpt>
      <trkpt lat="43.63429" lon="7.02965">
        <ele>212.05528259277</ele>
        <time>2011-09-08T20:09:33Z</time>
      </trkpt>
      <trkpt lat="43.63428" lon="7.02964">
        <ele>212.21319580078</ele>
        <time>2011-09-08T20:09:34Z</time>
      </trkpt>
      <trkpt lat="43.63426" lon="7.02965">
        <ele>213.54197692871</ele>
        <time>2011-09-08T20:09:37Z</time>
      </trkpt>
      <trkpt lat="43.63427" lon="7.02967">
        <ele>213.03979492188</ele>
        <time>2011-09-08T20:09:41Z</time>
      </trkpt>
      <trkpt lat="43.63425" lon="7.02965">
        <ele>213.72436523438</ele>
        <time>2011-09-08T20:09:53Z</time>
      </trkpt>
      <trkpt lat="43.63433" lon="7.02962">
        <ele>209.68789672852</ele>
        <time>2011-09-08T20:10:29Z</time>
      </trkpt>
      <trkpt lat="43.63441" lon="7.02947">
        <ele>205.18461608887</ele>
        <time>2011-09-08T20:10:33Z</time>
      </trkpt>
      <trkpt lat="43.63451" lon="7.0292">
        <ele>198.67042541504</ele>
        <time>2011-09-08T20:10:39Z</time>
      </trkpt>
      <trkpt lat="43.63454" lon="7.02907">
        <ele>196.97619628906</ele>
        <time>2011-09-08T20:10:42Z</time>
      </trkpt>
      <trkpt lat="43.63454" lon="7.02903">
        <ele>196.86505126953</ele>
        <time>2011-09-08T20:10:43Z</time>
      </trkpt>
      <trkpt lat="43.63455" lon="7.02885">
        <ele>196.15191650391</ele>
        <time>2011-09-08T20:10:47Z</time>
      </trkpt>
      <trkpt lat="43.63456" lon="7.02879">
        <ele>195.5451965332</ele>
        <time>2011-09-08T20:10:48Z</time>
      </trkpt>
      <trkpt lat="43.63458" lon="7.02862">
        <ele>194.23504638672</ele>
        <time>2011-09-08T20:10:52Z</time>
      </trkpt>
      <trkpt lat="43.63457" lon="7.02862">
        <ele>194.39723205566</ele>
        <time>2011-09-08T20:10:53Z</time>
      </trkpt>
      <trkpt lat="43.63457" lon="7.0286">
        <ele>194.67149353027</ele>
        <time>2011-09-08T20:10:56Z</time>
      </trkpt>
      <trkpt lat="43.63458" lon="7.02857">
        <ele>194.11759948731</ele>
        <time>2011-09-08T20:10:58Z</time>
      </trkpt>
      <trkpt lat="43.63459" lon="7.02856">
        <ele>193.77812194824</ele>
        <time>2011-09-08T20:11:00Z</time>
      </trkpt>
      <trkpt lat="43.63459" lon="7.02851">
        <ele>193.53021240234</ele>
        <time>2011-09-08T20:11:25Z</time>
      </trkpt>
      <trkpt lat="43.63456" lon="7.02845">
        <ele>194.52272033691</ele>
        <time>2011-09-08T20:11:34Z</time>
      </trkpt>
      <trkpt lat="43.63449" lon="7.0283">
        <ele>197.30877685547</ele>
        <time>2011-09-08T20:11:39Z</time>
      </trkpt>
      <trkpt lat="43.63439" lon="7.02805">
        <ele>202.77792358398</ele>
        <time>2011-09-08T20:11:44Z</time>
      </trkpt>
      <trkpt lat="43.63439" lon="7.028">
        <ele>202.61793518066</ele>
        <time>2011-09-08T20:11:45Z</time>
      </trkpt>
      <trkpt lat="43.63443" lon="7.02785">
        <ele>199.63050842285</ele>
        <time>2011-09-08T20:11:48Z</time>
      </trkpt>
      <trkpt lat="43.63443" lon="7.02781">
        <ele>198.92230224609</ele>
        <time>2011-09-08T20:11:49Z</time>
      </trkpt>
      <trkpt lat="43.63449" lon="7.02776">
        <ele>196.19944763184</ele>
        <time>2011-09-08T20:11:51Z</time>
      </trkpt>
      <trkpt lat="43.63453" lon="7.02775">
        <ele>194.97975158691</ele>
        <time>2011-09-08T20:11:52Z</time>
      </trkpt>
      <trkpt lat="43.63462" lon="7.02763">
        <ele>191.87384033203</ele>
        <time>2011-09-08T20:11:56Z</time>
      </trkpt>
      <trkpt lat="43.63464" lon="7.02763">
        <ele>191.34858703613</ele>
        <time>2011-09-08T20:11:57Z</time>
      </trkpt>
      <trkpt lat="43.63467" lon="7.02764">
        <ele>190.26037597656</ele>
        <time>2011-09-08T20:11:59Z</time>
      </trkpt>
      <trkpt lat="43.6347" lon="7.02762">
        <ele>189.2951965332</ele>
        <time>2011-09-08T20:12:00Z</time>
      </trkpt>
      <trkpt lat="43.63478" lon="7.02762">
        <ele>187.40106201172</ele>
        <time>2011-09-08T20:12:02Z</time>
      </trkpt>
      <trkpt lat="43.63489" lon="7.02769">
        <ele>184.74201965332</ele>
        <time>2011-09-08T20:12:06Z</time>
      </trkpt>
      <trkpt lat="43.63498" lon="7.02767">
        <ele>182.91040039062</ele>
        <time>2011-09-08T20:12:08Z</time>
      </trkpt>
      <trkpt lat="43.63502" lon="7.02763">
        <ele>182.29748535156</ele>
        <time>2011-09-08T20:12:09Z</time>
      </trkpt>
      <trkpt lat="43.6352" lon="7.0275">
        <ele>180.17233276367</ele>
        <time>2011-09-08T20:12:13Z</time>
      </trkpt>
      <trkpt lat="43.63538" lon="7.02747">
        <ele>176.81140136719</ele>
        <time>2011-09-08T20:12:17Z</time>
      </trkpt>
      <trkpt lat="43.63548" lon="7.0273">
        <ele>175.46730041504</ele>
        <time>2011-09-08T20:12:21Z</time>
      </trkpt>
      <trkpt lat="43.63565" lon="7.02714">
        <ele>173.06452941894</ele>
        <time>2011-09-08T20:12:25Z</time>
      </trkpt>
      <trkpt lat="43.63579" lon="7.02696">
        <ele>171.75393676758</ele>
        <time>2011-09-08T20:12:28Z</time>
      </trkpt>
      <trkpt lat="43.63586" lon="7.02689">
        <ele>170.92124938965</ele>
        <time>2011-09-08T20:12:29Z</time>
      </trkpt>
      <trkpt lat="43.63599" lon="7.02668">
        <ele>170.81471252441</ele>
        <time>2011-09-08T20:12:33Z</time>
      </trkpt>
      <trkpt lat="43.63599" lon="7.02661">
        <ele>171.22134399414</ele>
        <time>2011-09-08T20:12:36Z</time>
      </trkpt>
      <trkpt lat="43.63601" lon="7.02657">
        <ele>171.46166992188</ele>
        <time>2011-09-08T20:12:41Z</time>
      </trkpt>
      <trkpt lat="43.63605" lon="7.02639">
        <ele>172.45387268066</ele>
        <time>2011-09-08T20:12:45Z</time>
      </trkpt>
      <trkpt lat="43.63616" lon="7.02618">
        <ele>174.53988647461</ele>
        <time>2011-09-08T20:12:49Z</time>
      </trkpt>
      <trkpt lat="43.63621" lon="7.02617">
        <ele>174.96604919434</ele>
        <time>2011-09-08T20:12:50Z</time>
      </trkpt>
      <trkpt lat="43.63629" lon="7.02615">
        <ele>175.82878112793</ele>
        <time>2011-09-08T20:12:52Z</time>
      </trkpt>
      <trkpt lat="43.63641" lon="7.02624">
        <ele>175.64152526856</ele>
        <time>2011-09-08T20:12:55Z</time>
      </trkpt>
      <trkpt lat="43.63646" lon="7.02644">
        <ele>174.11366271973</ele>
        <time>2011-09-08T20:12:58Z</time>
      </trkpt>
      <trkpt lat="43.63652" lon="7.02659">
        <ele>173.00619506836</ele>
        <time>2011-09-08T20:13:00Z</time>
      </trkpt>
      <trkpt lat="43.63661" lon="7.02679">
        <ele>172.10794067383</ele>
        <time>2011-09-08T20:13:03Z</time>
      </trkpt>
      <trkpt lat="43.63665" lon="7.02682">
        <ele>172.5107421875</ele>
        <time>2011-09-08T20:13:05Z</time>
      </trkpt>
      <trkpt lat="43.6367" lon="7.02682">
        <ele>173.24411010742</ele>
        <time>2011-09-08T20:13:06Z</time>
      </trkpt>
      <trkpt lat="43.63684" lon="7.02672">
        <ele>176.74600219727</ele>
        <time>2011-09-08T20:13:09Z</time>
      </trkpt>
      <trkpt lat="43.63703" lon="7.02657">
        <ele>180.31422424316</ele>
        <time>2011-09-08T20:13:13Z</time>
      </trkpt>
      <trkpt lat="43.63708" lon="7.02654">
        <ele>180.56980895996</ele>
        <time>2011-09-08T20:13:14Z</time>
      </trkpt>
      <trkpt lat="43.63729" lon="7.02648">
        <ele>179.48916625977</ele>
        <time>2011-09-08T20:13:18Z</time>
      </trkpt>
      <trkpt lat="43.63734" lon="7.02648">
        <ele>178.52099609375</ele>
        <time>2011-09-08T20:13:19Z</time>
      </trkpt>
      <trkpt lat="43.63742" lon="7.02642">
        <ele>177.92361450195</ele>
        <time>2011-09-08T20:13:21Z</time>
      </trkpt>
      <trkpt lat="43.63751" lon="7.02636">
        <ele>177.09187316894</ele>
        <time>2011-09-08T20:13:23Z</time>
      </trkpt>
      <trkpt lat="43.63759" lon="7.02632">
        <ele>175.83834838867</ele>
        <time>2011-09-08T20:13:25Z</time>
      </trkpt>
      <trkpt lat="43.63778" lon="7.02622">
        <ele>173.33782958984</ele>
        <time>2011-09-08T20:13:29Z</time>
      </trkpt>
      <trkpt lat="43.63787" lon="7.02617">
        <ele>171.74494934082</ele>
        <time>2011-09-08T20:13:31Z</time>
      </trkpt>
      <trkpt lat="43.63801" lon="7.02612">
        <ele>169.02326965332</ele>
        <time>2011-09-08T20:13:34Z</time>
      </trkpt>
      <trkpt lat="43.63807" lon="7.02609">
        <ele>167.90251159668</ele>
        <time>2011-09-08T20:13:35Z</time>
      </trkpt>
      <trkpt lat="43.63821" lon="7.02606">
        <ele>165.53829956055</ele>
        <time>2011-09-08T20:13:39Z</time>
      </trkpt>
      <trkpt lat="43.6382" lon="7.02619">
        <ele>164.95477294922</ele>
        <time>2011-09-08T20:13:42Z</time>
      </trkpt>
      <trkpt lat="43.63816" lon="7.02624">
        <ele>165.05992126465</ele>
        <time>2011-09-08T20:13:45Z</time>
      </trkpt>
      <trkpt lat="43.63816" lon="7.02624">
        <ele>165.04066467285</ele>
        <time>2011-09-08T20:13:46Z</time>
      </trkpt>
      <trkpt lat="43.63811" lon="7.02634">
        <ele>164.92607116699</ele>
        <time>2011-09-08T20:14:06Z</time>
      </trkpt>
      <trkpt lat="43.63807" lon="7.02639">
        <ele>164.85115051269</ele>
        <time>2011-09-08T20:14:10Z</time>
      </trkpt>
      <trkpt lat="43.63798" lon="7.02641">
        <ele>166.32083129883</ele>
        <time>2011-09-08T20:14:15Z</time>
      </trkpt>
      <trkpt lat="43.63784" lon="7.02648">
        <ele>168.69491577148</ele>
        <time>2011-09-08T20:14:23Z</time>
      </trkpt>
      <trkpt lat="43.63769" lon="7.02653">
        <ele>171.20274353027</ele>
        <time>2011-09-08T20:14:30Z</time>
      </trkpt>
      <trkpt lat="43.63752" lon="7.02657">
        <ele>173.97245788574</ele>
        <time>2011-09-08T20:14:37Z</time>
      </trkpt>
      <trkpt lat="43.63729" lon="7.02662">
        <ele>177.35369873047</ele>
        <time>2011-09-08T20:14:46Z</time>
      </trkpt>
      <trkpt lat="43.63708" lon="7.0267">
        <ele>178.06861877441</ele>
        <time>2011-09-08T20:14:55Z</time>
      </trkpt>
      <trkpt lat="43.63691" lon="7.02682">
        <ele>176.40267944336</ele>
        <time>2011-09-08T20:15:02Z</time>
      </trkpt>
      <trkpt lat="43.63674" lon="7.02697">
        <ele>171.64352416992</ele>
        <time>2011-09-08T20:15:10Z</time>
      </trkpt>
      <trkpt lat="43.63657" lon="7.02703">
        <ele>168.05265808106</ele>
        <time>2011-09-08T20:15:17Z</time>
      </trkpt>
      <trkpt lat="43.63646" lon="7.02694">
        <ele>168.04734802246</ele>
        <time>2011-09-08T20:15:22Z</time>
      </trkpt>
      <trkpt lat="43.6364" lon="7.02674">
        <ele>168.74667358398</ele>
        <time>2011-09-08T20:15:28Z</time>
      </trkpt>
      <trkpt lat="43.6363" lon="7.02645">
        <ele>171.89521789551</ele>
        <time>2011-09-08T20:15:36Z</time>
      </trkpt>
      <trkpt lat="43.63626" lon="7.0264">
        <ele>172.37658691406</ele>
        <time>2011-09-08T20:15:39Z</time>
      </trkpt>
      <trkpt lat="43.63625" lon="7.02641">
        <ele>172.31065368652</ele>
        <time>2011-09-08T20:15:40Z</time>
      </trkpt>
      <trkpt lat="43.6362" lon="7.02644">
        <ele>171.84652709961</ele>
        <time>2011-09-08T20:15:43Z</time>
      </trkpt>
      <trkpt lat="43.63618" lon="7.02646">
        <ele>171.60269165039</ele>
        <time>2011-09-08T20:15:44Z</time>
      </trkpt>
      <trkpt lat="43.63612" lon="7.02663">
        <ele>170.25204467773</ele>
        <time>2011-09-08T20:15:51Z</time>
      </trkpt>
      <trkpt lat="43.63607" lon="7.02674">
        <ele>169.80548095703</ele>
        <time>2011-09-08T20:15:56Z</time>
      </trkpt>
      <trkpt lat="43.63603" lon="7.0268">
        <ele>169.75509643555</ele>
        <time>2011-09-08T20:16:02Z</time>
      </trkpt>
      <trkpt lat="43.63596" lon="7.02692">
        <ele>169.82960510254</ele>
        <time>2011-09-08T20:16:07Z</time>
      </trkpt>
      <trkpt lat="43.63586" lon="7.02711">
        <ele>169.95785522461</ele>
        <time>2011-09-08T20:16:14Z</time>
      </trkpt>
      <trkpt lat="43.63576" lon="7.02729">
        <ele>170.67225646973</ele>
        <time>2011-09-08T20:16:20Z</time>
      </trkpt>
      <trkpt lat="43.63563" lon="7.02743">
        <ele>172.0026550293</ele>
        <time>2011-09-08T20:16:26Z</time>
      </trkpt>
      <trkpt lat="43.63539" lon="7.02762">
        <ele>176.21060180664</ele>
        <time>2011-09-08T20:16:35Z</time>
      </trkpt>
      <trkpt lat="43.63513" lon="7.02782">
        <ele>179.95774841309</ele>
        <time>2011-09-08T20:16:43Z</time>
      </trkpt>
      <trkpt lat="43.63494" lon="7.02799">
        <ele>182.68006896973</ele>
        <time>2011-09-08T20:16:49Z</time>
      </trkpt>
      <trkpt lat="43.63493" lon="7.02808">
        <ele>182.71850585938</ele>
        <time>2011-09-08T20:16:51Z</time>
      </trkpt>
      <trkpt lat="43.63495" lon="7.02817">
        <ele>181.95152282715</ele>
        <time>2011-09-08T20:16:53Z</time>
      </trkpt>
      <trkpt lat="43.63498" lon="7.02827">
        <ele>180.93020629883</ele>
        <time>2011-09-08T20:16:55Z</time>
      </trkpt>
      <trkpt lat="43.63504" lon="7.02849">
        <ele>179.33984375</ele>
        <time>2011-09-08T20:17:00Z</time>
      </trkpt>
      <trkpt lat="43.63515" lon="7.02878">
        <ele>177.03581237793</ele>
        <time>2011-09-08T20:17:07Z</time>
      </trkpt>
      <trkpt lat="43.63521" lon="7.02908">
        <ele>175.42199707031</ele>
        <time>2011-09-08T20:17:14Z</time>
      </trkpt>
      <trkpt lat="43.63521" lon="7.02935">
        <ele>175.33804321289</ele>
        <time>2011-09-08T20:17:20Z</time>
      </trkpt>
      <trkpt lat="43.63518" lon="7.02973">
        <ele>177.86169433594</ele>
        <time>2011-09-08T20:17:28Z</time>
      </trkpt>
      <trkpt lat="43.63518" lon="7.0301">
        <ele>179.79997253418</ele>
        <time>2011-09-08T20:17:36Z</time>
      </trkpt>
      <trkpt lat="43.63519" lon="7.03042">
        <ele>180.66598510742</ele>
        <time>2011-09-08T20:17:43Z</time>
      </trkpt>
      <trkpt lat="43.63519" lon="7.03087">
        <ele>180.62818908691</ele>
        <time>2011-09-08T20:17:52Z</time>
      </trkpt>
      <trkpt lat="43.63517" lon="7.0312">
        <ele>180.5838470459</ele>
        <time>2011-09-08T20:17:59Z</time>
      </trkpt>
      <trkpt lat="43.63515" lon="7.03146">
        <ele>180.38333129883</ele>
        <time>2011-09-08T20:18:04Z</time>
      </trkpt>
      <trkpt lat="43.6351" lon="7.03187">
        <ele>180.61054992676</ele>
        <time>2011-09-08T20:18:12Z</time>
      </trkpt>
      <trkpt lat="43.63498" lon="7.03234">
        <ele>184.01637268066</ele>
        <time>2011-09-08T20:18:21Z</time>
      </trkpt>
      <trkpt lat="43.63484" lon="7.03263">
        <ele>186.3201751709</ele>
        <time>2011-09-08T20:18:28Z</time>
      </trkpt>
      <trkpt lat="43.63464" lon="7.03287">
        <ele>192.01803588867</ele>
        <time>2011-09-08T20:18:35Z</time>
      </trkpt>
      <trkpt lat="43.63444" lon="7.03303">
        <ele>201.35778808594</ele>
        <time>2011-09-08T20:18:41Z</time>
      </trkpt>
      <trkpt lat="43.63421" lon="7.03318">
        <ele>208.25823974609</ele>
        <time>2011-09-08T20:18:47Z</time>
      </trkpt>
      <trkpt lat="43.63417" lon="7.03321">
        <ele>209.36857604981</ele>
        <time>2011-09-08T20:18:48Z</time>
      </trkpt>
      <trkpt lat="43.63399" lon="7.03335">
        <ele>211.76538085938</ele>
        <time>2011-09-08T20:18:53Z</time>
      </trkpt>
      <trkpt lat="43.63378" lon="7.03351">
        <ele>214.51551818848</ele>
        <time>2011-09-08T20:18:59Z</time>
      </trkpt>
      <trkpt lat="43.6337" lon="7.03355">
        <ele>215.30073547363</ele>
        <time>2011-09-08T20:19:01Z</time>
      </trkpt>
      <trkpt lat="43.63358" lon="7.0336">
        <ele>216.18476867676</ele>
        <time>2011-09-08T20:19:04Z</time>
      </trkpt>
      <trkpt lat="43.63354" lon="7.03362">
        <ele>216.19230651856</ele>
        <time>2011-09-08T20:19:05Z</time>
      </trkpt>
      <trkpt lat="43.63323" lon="7.03371">
        <ele>216.66609191894</ele>
        <time>2011-09-08T20:19:12Z</time>
      </trkpt>
      <trkpt lat="43.63284" lon="7.03384">
        <ele>214.83073425293</ele>
        <time>2011-09-08T20:19:21Z</time>
      </trkpt>
      <trkpt lat="43.63245" lon="7.03398">
        <ele>208.51947021484</ele>
        <time>2011-09-08T20:19:30Z</time>
      </trkpt>
      <trkpt lat="43.63227" lon="7.03401">
        <ele>206.22779846191</ele>
        <time>2011-09-08T20:19:34Z</time>
      </trkpt>
      <trkpt lat="43.63218" lon="7.03398">
        <ele>205.42304992676</ele>
        <time>2011-09-08T20:19:36Z</time>
      </trkpt>
      <trkpt lat="43.63202" lon="7.03383">
        <ele>204.43865966797</ele>
        <time>2011-09-08T20:19:40Z</time>
      </trkpt>
      <trkpt lat="43.63194" lon="7.03371">
        <ele>204.20100402832</ele>
        <time>2011-09-08T20:19:44Z</time>
      </trkpt>
      <trkpt lat="43.63194" lon="7.03369">
        <ele>204.32460021973</ele>
        <time>2011-09-08T20:19:48Z</time>
      </trkpt>
      <trkpt lat="43.63196" lon="7.0337">
        <ele>204.64122009277</ele>
        <time>2011-09-08T20:20:02Z</time>
      </trkpt>
      <trkpt lat="43.63195" lon="7.0337">
        <ele>204.47985839844</ele>
        <time>2011-09-08T20:20:23Z</time>
      </trkpt>
      <trkpt lat="43.63194" lon="7.03359">
        <ele>205.11767578125</ele>
        <time>2011-09-08T20:20:29Z</time>
      </trkpt>
      <trkpt lat="43.63195" lon="7.03339">
        <ele>206.73892211914</ele>
        <time>2011-09-08T20:20:35Z</time>
      </trkpt>
      <trkpt lat="43.63197" lon="7.03316">
        <ele>208.63128662109</ele>
        <time>2011-09-08T20:20:43Z</time>
      </trkpt>
      <trkpt lat="43.63198" lon="7.03294">
        <ele>210.4407043457</ele>
        <time>2011-09-08T20:20:51Z</time>
      </trkpt>
      <trkpt lat="43.63199" lon="7.03274">
        <ele>212.06390380859</ele>
        <time>2011-09-08T20:20:58Z</time>
      </trkpt>
      <trkpt lat="43.632" lon="7.03269">
        <ele>212.7900390625</ele>
        <time>2011-09-08T20:21:00Z</time>
      </trkpt>
      <trkpt lat="43.63206" lon="7.03267">
        <ele>214.14411926269</ele>
        <time>2011-09-08T20:21:03Z</time>
      </trkpt>
      <trkpt lat="43.63211" lon="7.03274">
        <ele>214.25471496582</ele>
        <time>2011-09-08T20:21:07Z</time>
      </trkpt>
      <trkpt lat="43.63212" lon="7.03282">
        <ele>213.88423156738</ele>
        <time>2011-09-08T20:21:10Z</time>
      </trkpt>
      <trkpt lat="43.63215" lon="7.0329">
        <ele>213.82586669922</ele>
        <time>2011-09-08T20:21:13Z</time>
      </trkpt>
      <trkpt lat="43.63225" lon="7.03306">
        <ele>214.27496337891</ele>
        <time>2011-09-08T20:21:21Z</time>
      </trkpt>
      <trkpt lat="43.63239" lon="7.03309">
        <ele>216.02935791016</ele>
        <time>2011-09-08T20:21:28Z</time>
      </trkpt>
      <trkpt lat="43.63251" lon="7.03301">
        <ele>218.54011535644</ele>
        <time>2011-09-08T20:21:34Z</time>
      </trkpt>
      <trkpt lat="43.63264" lon="7.03289">
        <ele>222.49897766113</ele>
        <time>2011-09-08T20:21:41Z</time>
      </trkpt>
      <trkpt lat="43.63279" lon="7.03274">
        <ele>227.65872192383</ele>
        <time>2011-09-08T20:21:49Z</time>
      </trkpt>
      <trkpt lat="43.63292" lon="7.03261">
        <ele>230.17649841309</ele>
        <time>2011-09-08T20:21:56Z</time>
      </trkpt>
      <trkpt lat="43.63309" lon="7.03243">
        <ele>232.48196411133</ele>
        <time>2011-09-08T20:22:04Z</time>
      </trkpt>
      <trkpt lat="43.63324" lon="7.03233">
        <ele>232.46823120117</ele>
        <time>2011-09-08T20:22:10Z</time>
      </trkpt>
      <trkpt lat="43.63339" lon="7.03221">
        <ele>231.72422790527</ele>
        <time>2011-09-08T20:22:16Z</time>
      </trkpt>
      <trkpt lat="43.63358" lon="7.03202">
        <ele>228.24627685547</ele>
        <time>2011-09-08T20:22:23Z</time>
      </trkpt>
      <trkpt lat="43.63377" lon="7.03181">
        <ele>225.1883392334</ele>
        <time>2011-09-08T20:22:30Z</time>
      </trkpt>
      <trkpt lat="43.63393" lon="7.0316">
        <ele>222.71357727051</ele>
        <time>2011-09-08T20:22:36Z</time>
      </trkpt>
      <trkpt lat="43.63404" lon="7.03136">
        <ele>221.86044311523</ele>
        <time>2011-09-08T20:22:42Z</time>
      </trkpt>
      <trkpt lat="43.63412" lon="7.03106">
        <ele>220.92317199707</ele>
        <time>2011-09-08T20:22:49Z</time>
      </trkpt>
      <trkpt lat="43.63418" lon="7.03082">
        <ele>219.51014709473</ele>
        <time>2011-09-08T20:22:55Z</time>
      </trkpt>
      <trkpt lat="43.63419" lon="7.03064">
        <ele>218.24328613281</ele>
        <time>2011-09-08T20:23:01Z</time>
      </trkpt>
      <trkpt lat="43.63419" lon="7.03056">
        <ele>217.97206115723</ele>
        <time>2011-09-08T20:23:07Z</time>
      </trkpt>
      <trkpt lat="43.63414" lon="7.03063">
        <ele>219.91961669922</ele>
        <time>2011-09-08T20:23:11Z</time>
      </trkpt>
      <trkpt lat="43.63406" lon="7.03065">
        <ele>221.56413269043</ele>
        <time>2011-09-08T20:23:15Z</time>
      </trkpt>
      <trkpt lat="43.63404" lon="7.03066">
        <ele>221.99844360352</ele>
        <time>2011-09-08T20:23:16Z</time>
      </trkpt>
      <trkpt lat="43.63391" lon="7.03073">
        <ele>225.07461547852</ele>
        <time>2011-09-08T20:23:24Z</time>
      </trkpt>
      <trkpt lat="43.63379" lon="7.03076">
        <ele>229.2890625</ele>
        <time>2011-09-08T20:23:31Z</time>
      </trkpt>
      <trkpt lat="43.63366" lon="7.03072">
        <ele>233.69450378418</ele>
        <time>2011-09-08T20:23:38Z</time>
      </trkpt>
      <trkpt lat="43.63354" lon="7.03067">
        <ele>236.77264404297</ele>
        <time>2011-09-08T20:23:45Z</time>
      </trkpt>
      <trkpt lat="43.63342" lon="7.03061">
        <ele>238.70582580566</ele>
        <time>2011-09-08T20:23:52Z</time>
      </trkpt>
      <trkpt lat="43.63334" lon="7.03054">
        <ele>239.91943359375</ele>
        <time>2011-09-08T20:23:58Z</time>
      </trkpt>
      <trkpt lat="43.63325" lon="7.03049">
        <ele>240</ele>
        <time>2011-09-08T20:24:04Z</time>
      </trkpt>
      <trkpt lat="43.63322" lon="7.03046">
        <ele>240</ele>
        <time>2011-09-08T20:24:06Z</time>
      </trkpt>
      <trkpt lat="43.63321" lon="7.03039">
        <ele>240</ele>
        <time>2011-09-08T20:24:09Z</time>
      </trkpt>
      <trkpt lat="43.6332" lon="7.03031">
        <ele>240</ele>
        <time>2011-09-08T20:24:13Z</time>
      </trkpt>
      <trkpt lat="43.63319" lon="7.03029">
        <ele>240</ele>
        <time>2011-09-08T20:24:14Z</time>
      </trkpt>
      <trkpt lat="43.63319" lon="7.03028">
        <ele>240</ele>
        <time>2011-09-08T20:24:15Z</time>
      </trkpt>
      <trkpt lat="43.63321" lon="7.03016">
        <ele>240</ele>
        <time>2011-09-08T20:24:19Z</time>
      </trkpt>
      <trkpt lat="43.63321" lon="7.03004">
        <ele>240</ele>
        <time>2011-09-08T20:24:24Z</time>
      </trkpt>
      <trkpt lat="43.63319" lon="7.02989">
        <ele>240</ele>
        <time>2011-09-08T20:24:30Z</time>
      </trkpt>
      <trkpt lat="43.63319" lon="7.02986">
        <ele>240</ele>
        <time>2011-09-08T20:24:31Z</time>
      </trkpt>
      <trkpt lat="43.63323" lon="7.02978">
        <ele>240</ele>
        <time>2011-09-08T20:24:34Z</time>
      </trkpt>
      <trkpt lat="43.63324" lon="7.02975">
        <ele>240</ele>
        <time>2011-09-08T20:24:35Z</time>
      </trkpt>
      <trkpt lat="43.63326" lon="7.02959">
        <ele>240</ele>
        <time>2011-09-08T20:24:40Z</time>
      </trkpt>
      <trkpt lat="43.63327" lon="7.02956">
        <ele>240</ele>
        <time>2011-09-08T20:24:41Z</time>
      </trkpt>
      <trkpt lat="43.63326" lon="7.02948">
        <ele>240</ele>
        <time>2011-09-08T20:24:44Z</time>
      </trkpt>
      <trkpt lat="43.63327" lon="7.02934">
        <ele>240</ele>
        <time>2011-09-08T20:24:49Z</time>
      </trkpt>
      <trkpt lat="43.63328" lon="7.02929">
        <ele>240</ele>
        <time>2011-09-08T20:24:51Z</time>
      </trkpt>
      <trkpt lat="43.6333" lon="7.02916">
        <ele>240</ele>
        <time>2011-09-08T20:24:55Z</time>
      </trkpt>
      <trkpt lat="43.63333" lon="7.02906">
        <ele>240</ele>
        <time>2011-09-08T20:24:59Z</time>
      </trkpt>
      <trkpt lat="43.63333" lon="7.02902">
        <ele>240</ele>
        <time>2011-09-08T20:25:00Z</time>
      </trkpt>
      <trkpt lat="43.63338" lon="7.02892">
        <ele>238.49514770508</ele>
        <time>2011-09-08T20:25:03Z</time>
      </trkpt>
      <trkpt lat="43.6334" lon="7.0288">
        <ele>235.54801940918</ele>
        <time>2011-09-08T20:25:07Z</time>
      </trkpt>
      <trkpt lat="43.63343" lon="7.02857">
        <ele>228.66340637207</ele>
        <time>2011-09-08T20:25:13Z</time>
      </trkpt>
      <trkpt lat="43.63349" lon="7.02844">
        <ele>223.48808288574</ele>
        <time>2011-09-08T20:25:17Z</time>
      </trkpt>
      <trkpt lat="43.63355" lon="7.02822">
        <ele>219.48960876465</ele>
        <time>2011-09-08T20:25:21Z</time>
      </trkpt>
      <trkpt lat="43.63367" lon="7.02794">
        <ele>219</ele>
        <time>2011-09-08T20:25:25Z</time>
      </trkpt>
      <trkpt lat="43.63369" lon="7.02787">
        <ele>219</ele>
        <time>2011-09-08T20:25:26Z</time>
      </trkpt>
      <trkpt lat="43.63375" lon="7.02767">
        <ele>219</ele>
        <time>2011-09-08T20:25:30Z</time>
      </trkpt>
      <trkpt lat="43.63378" lon="7.02763">
        <ele>219</ele>
        <time>2011-09-08T20:25:31Z</time>
      </trkpt>
      <trkpt lat="43.63383" lon="7.02752">
        <ele>219</ele>
        <time>2011-09-08T20:25:34Z</time>
      </trkpt>
      <trkpt lat="43.63394" lon="7.02744">
        <ele>219</ele>
        <time>2011-09-08T20:25:37Z</time>
      </trkpt>
      <trkpt lat="43.63396" lon="7.02738">
        <ele>219</ele>
        <time>2011-09-08T20:25:38Z</time>
      </trkpt>
      <trkpt lat="43.63405" lon="7.02723">
        <ele>219</ele>
        <time>2011-09-08T20:25:41Z</time>
      </trkpt>
      <trkpt lat="43.63411" lon="7.02714">
        <ele>219</ele>
        <time>2011-09-08T20:25:43Z</time>
      </trkpt>
      <trkpt lat="43.63422" lon="7.02693">
        <ele>215.3526763916</ele>
        <time>2011-09-08T20:25:48Z</time>
      </trkpt>
      <trkpt lat="43.63425" lon="7.0269">
        <ele>213.56741333008</ele>
        <time>2011-09-08T20:25:49Z</time>
      </trkpt>
      <trkpt lat="43.63432" lon="7.02676">
        <ele>208.67140197754</ele>
        <time>2011-09-08T20:25:53Z</time>
      </trkpt>
      <trkpt lat="43.63433" lon="7.02671">
        <ele>208.27317810059</ele>
        <time>2011-09-08T20:25:57Z</time>
      </trkpt>
      <trkpt lat="43.63425" lon="7.02668">
        <ele>213.79083251953</ele>
        <time>2011-09-08T20:26:13Z</time>
      </trkpt>
      <trkpt lat="43.63411" lon="7.02672">
        <ele>219</ele>
        <time>2011-09-08T20:26:18Z</time>
      </trkpt>
      <trkpt lat="43.63393" lon="7.02677">
        <ele>219</ele>
        <time>2011-09-08T20:26:22Z</time>
      </trkpt>
      <trkpt lat="43.6338" lon="7.02679">
        <ele>219</ele>
        <time>2011-09-08T20:26:26Z</time>
      </trkpt>
      <trkpt lat="43.63379" lon="7.02682">
        <ele>219</ele>
        <time>2011-09-08T20:26:27Z</time>
      </trkpt>
      <trkpt lat="43.63368" lon="7.02686">
        <ele>219</ele>
        <time>2011-09-08T20:26:30Z</time>
      </trkpt>
      <trkpt lat="43.63363" lon="7.02688">
        <ele>219</ele>
        <time>2011-09-08T20:26:31Z</time>
      </trkpt>
      <trkpt lat="43.63347" lon="7.02691">
        <ele>219</ele>
        <time>2011-09-08T20:26:34Z</time>
      </trkpt>
      <trkpt lat="43.6333" lon="7.02698">
        <ele>219</ele>
        <time>2011-09-08T20:26:38Z</time>
      </trkpt>
      <trkpt lat="43.63324" lon="7.02699">
        <ele>219</ele>
        <time>2011-09-08T20:26:39Z</time>
      </trkpt>
      <trkpt lat="43.63314" lon="7.02702">
        <ele>219</ele>
        <time>2011-09-08T20:26:41Z</time>
      </trkpt>
      <trkpt lat="43.63303" lon="7.02702">
        <ele>218.84158325195</ele>
        <time>2011-09-08T20:26:43Z</time>
      </trkpt>
      <trkpt lat="43.63281" lon="7.02696">
        <ele>217.28723144531</ele>
        <time>2011-09-08T20:26:47Z</time>
      </trkpt>
      <trkpt lat="43.63276" lon="7.02694">
        <ele>216.05497741699</ele>
        <time>2011-09-08T20:26:48Z</time>
      </trkpt>
      <trkpt lat="43.63248" lon="7.02678">
        <ele>201.24165344238</ele>
        <time>2011-09-08T20:26:54Z</time>
      </trkpt>
      <trkpt lat="43.63244" lon="7.02676">
        <ele>199.89239501953</ele>
        <time>2011-09-08T20:26:55Z</time>
      </trkpt>
      <trkpt lat="43.63229" lon="7.02673">
        <ele>195.48069763184</ele>
        <time>2011-09-08T20:26:58Z</time>
      </trkpt>
      <trkpt lat="43.63213" lon="7.02671">
        <ele>189.59515380859</ele>
        <time>2011-09-08T20:27:01Z</time>
      </trkpt>
      <trkpt lat="43.63203" lon="7.02672">
        <ele>185.92868041992</ele>
        <time>2011-09-08T20:27:03Z</time>
      </trkpt>
      <trkpt lat="43.63196" lon="7.0267">
        <ele>183.03916931152</ele>
        <time>2011-09-08T20:27:05Z</time>
      </trkpt>
      <trkpt lat="43.63187" lon="7.02671">
        <ele>181.90843200684</ele>
        <time>2011-09-08T20:27:07Z</time>
      </trkpt>
      <trkpt lat="43.63175" lon="7.02672">
        <ele>180.86334228516</ele>
        <time>2011-09-08T20:27:11Z</time>
      </trkpt>
      <trkpt lat="43.63162" lon="7.02676">
        <ele>179.65319824219</ele>
        <time>2011-09-08T20:27:15Z</time>
      </trkpt>
      <trkpt lat="43.63147" lon="7.02679">
        <ele>178.60949707031</ele>
        <time>2011-09-08T20:27:20Z</time>
      </trkpt>
      <trkpt lat="43.63136" lon="7.02678">
        <ele>177.0322265625</ele>
        <time>2011-09-08T20:27:25Z</time>
      </trkpt>
      <trkpt lat="43.63136" lon="7.02676">
        <ele>177.14208984375</ele>
        <time>2011-09-08T20:27:29Z</time>
      </trkpt>
      <trkpt lat="43.63137" lon="7.02668">
        <ele>177.58154296875</ele>
        <time>2011-09-08T20:27:36Z</time>
      </trkpt>
      <trkpt lat="43.63144" lon="7.02649">
        <ele>178.38977050781</ele>
        <time>2011-09-08T20:27:40Z</time>
      </trkpt>
      <trkpt lat="43.63148" lon="7.02632">
        <ele>178.69189453125</ele>
        <time>2011-09-08T20:27:44Z</time>
      </trkpt>
      <trkpt lat="43.63147" lon="7.02632">
        <ele>178.60949707031</ele>
        <time>2011-09-08T20:27:45Z</time>
      </trkpt>
      <trkpt lat="43.63145" lon="7.02623">
        <ele>178.44470214844</ele>
        <time>2011-09-08T20:27:47Z</time>
      </trkpt>
      <trkpt lat="43.63145" lon="7.02603">
        <ele>178.44470214844</ele>
        <time>2011-09-08T20:27:50Z</time>
      </trkpt>
      <trkpt lat="43.63144" lon="7.02579">
        <ele>178.50921630859</ele>
        <time>2011-09-08T20:27:55Z</time>
      </trkpt>
      <trkpt lat="43.6314" lon="7.02556">
        <ele>179.0115814209</ele>
        <time>2011-09-08T20:27:59Z</time>
      </trkpt>
      <trkpt lat="43.6314" lon="7.02551">
        <ele>179.04382324219</ele>
        <time>2011-09-08T20:28:00Z</time>
      </trkpt>
      <trkpt lat="43.63133" lon="7.02545">
        <ele>177.78231811523</ele>
        <time>2011-09-08T20:28:03Z</time>
      </trkpt>
      <trkpt lat="43.63119" lon="7.02546">
        <ele>174.98742675781</ele>
        <time>2011-09-08T20:28:06Z</time>
      </trkpt>
      <trkpt lat="43.63114" lon="7.02545">
        <ele>173.91864013672</ele>
        <time>2011-09-08T20:28:07Z</time>
      </trkpt>
      <trkpt lat="43.63089" lon="7.02544">
        <ele>171.40447998047</ele>
        <time>2011-09-08T20:28:11Z</time>
      </trkpt>
      <trkpt lat="43.63077" lon="7.02553">
        <ele>170.37620544434</ele>
        <time>2011-09-08T20:28:14Z</time>
      </trkpt>
      <trkpt lat="43.63067" lon="7.02573">
        <ele>169.619140625</ele>
        <time>2011-09-08T20:28:17Z</time>
      </trkpt>
      <trkpt lat="43.63063" lon="7.02578">
        <ele>169.32203674316</ele>
        <time>2011-09-08T20:28:18Z</time>
      </trkpt>
      <trkpt lat="43.63055" lon="7.02588">
        <ele>168.66394042969</ele>
        <time>2011-09-08T20:28:20Z</time>
      </trkpt>
      <trkpt lat="43.63045" lon="7.02591">
        <ele>169.99946594238</ele>
        <time>2011-09-08T20:28:23Z</time>
      </trkpt>
      <trkpt lat="43.63036" lon="7.02598">
        <ele>170.71701049805</ele>
        <time>2011-09-08T20:28:27Z</time>
      </trkpt>
      <trkpt lat="43.63031" lon="7.02616">
        <ele>169.9775390625</ele>
        <time>2011-09-08T20:28:30Z</time>
      </trkpt>
      <trkpt lat="43.63029" lon="7.02623">
        <ele>169.53753662109</ele>
        <time>2011-09-08T20:28:31Z</time>
      </trkpt>
      <trkpt lat="43.63021" lon="7.02644">
        <ele>168.77828979492</ele>
        <time>2011-09-08T20:28:34Z</time>
      </trkpt>
      <trkpt lat="43.63014" lon="7.02654">
        <ele>169.08111572266</ele>
        <time>2011-09-08T20:28:36Z</time>
      </trkpt>
      <trkpt lat="43.63008" lon="7.02663">
        <ele>168.97778320312</ele>
        <time>2011-09-08T20:28:38Z</time>
      </trkpt>
      <trkpt lat="43.63004" lon="7.02673">
        <ele>168.74499511719</ele>
        <time>2011-09-08T20:28:40Z</time>
      </trkpt>
      <trkpt lat="43.62992" lon="7.02687">
        <ele>169.47952270508</ele>
        <time>2011-09-08T20:28:43Z</time>
      </trkpt>
      <trkpt lat="43.62988" lon="7.02693">
        <ele>169.4094543457</ele>
        <time>2011-09-08T20:28:44Z</time>
      </trkpt>
      <trkpt lat="43.62982" lon="7.02714">
        <ele>167.06558227539</ele>
        <time>2011-09-08T20:28:47Z</time>
      </trkpt>
      <trkpt lat="43.62978" lon="7.0272">
        <ele>166.68792724609</ele>
        <time>2011-09-08T20:28:48Z</time>
      </trkpt>
      <trkpt lat="43.62971" lon="7.02728">
        <ele>166.16044616699</ele>
        <time>2011-09-08T20:28:50Z</time>
      </trkpt>
      <trkpt lat="43.62952" lon="7.02748">
        <ele>163.79504394531</ele>
        <time>2011-09-08T20:28:55Z</time>
      </trkpt>
      <trkpt lat="43.62948" lon="7.02753">
        <ele>163.35984802246</ele>
        <time>2011-09-08T20:28:56Z</time>
      </trkpt>
      <trkpt lat="43.62938" lon="7.02763">
        <ele>162.00601196289</ele>
        <time>2011-09-08T20:28:58Z</time>
      </trkpt>
      <trkpt lat="43.62934" lon="7.0277">
        <ele>160.97917175293</ele>
        <time>2011-09-08T20:28:59Z</time>
      </trkpt>
      <trkpt lat="43.62929" lon="7.02785">
        <ele>160</ele>
        <time>2011-09-08T20:29:02Z</time>
      </trkpt>
      <trkpt lat="43.62922" lon="7.02791">
        <ele>160</ele>
        <time>2011-09-08T20:29:06Z</time>
      </trkpt>
      <trkpt lat="43.6292" lon="7.02792">
        <ele>160</ele>
        <time>2011-09-08T20:29:07Z</time>
      </trkpt>
      <trkpt lat="43.62907" lon="7.02794">
        <ele>160</ele>
        <time>2011-09-08T20:29:11Z</time>
      </trkpt>
      <trkpt lat="43.62904" lon="7.02792">
        <ele>160</ele>
        <time>2011-09-08T20:29:12Z</time>
      </trkpt>
      <trkpt lat="43.62899" lon="7.02787">
        <ele>160</ele>
        <time>2011-09-08T20:29:15Z</time>
      </trkpt>
      <trkpt lat="43.62885" lon="7.02774">
        <ele>160</ele>
        <time>2011-09-08T20:29:21Z</time>
      </trkpt>
      <trkpt lat="43.62869" lon="7.0277">
        <ele>160</ele>
        <time>2011-09-08T20:29:28Z</time>
      </trkpt>
      <trkpt lat="43.6286" lon="7.02768">
        <ele>160</ele>
        <time>2011-09-08T20:29:32Z</time>
      </trkpt>
      <trkpt lat="43.62856" lon="7.02766">
        <ele>160</ele>
        <time>2011-09-08T20:29:34Z</time>
      </trkpt>
      <trkpt lat="43.62849" lon="7.02756">
        <ele>160</ele>
        <time>2011-09-08T20:29:39Z</time>
      </trkpt>
      <trkpt lat="43.62848" lon="7.02754">
        <ele>160</ele>
        <time>2011-09-08T20:29:40Z</time>
      </trkpt>
      <trkpt lat="43.62836" lon="7.02743">
        <ele>160.13961791992</ele>
        <time>2011-09-08T20:29:46Z</time>
      </trkpt>
      <trkpt lat="43.62823" lon="7.02727">
        <ele>160</ele>
        <time>2011-09-08T20:29:55Z</time>
      </trkpt>
      <trkpt lat="43.62812" lon="7.0272">
        <ele>160.24186706543</ele>
        <time>2011-09-08T20:30:01Z</time>
      </trkpt>
      <trkpt lat="43.62793" lon="7.0271">
        <ele>160.86907958984</ele>
        <time>2011-09-08T20:30:10Z</time>
      </trkpt>
      <trkpt lat="43.62781" lon="7.02695">
        <ele>161.99517822266</ele>
        <time>2011-09-08T20:30:18Z</time>
      </trkpt>
      <trkpt lat="43.62769" lon="7.0268">
        <ele>162</ele>
        <time>2011-09-08T20:30:26Z</time>
      </trkpt>
      <trkpt lat="43.62759" lon="7.02663">
        <ele>162.17521667481</ele>
        <time>2011-09-08T20:30:33Z</time>
      </trkpt>
      <trkpt lat="43.62748" lon="7.02648">
        <ele>162.91471862793</ele>
        <time>2011-09-08T20:30:40Z</time>
      </trkpt>
      <trkpt lat="43.62737" lon="7.02633">
        <ele>164.66194152832</ele>
        <time>2011-09-08T20:30:47Z</time>
      </trkpt>
      <trkpt lat="43.62724" lon="7.02622">
        <ele>166.39743041992</ele>
        <time>2011-09-08T20:30:54Z</time>
      </trkpt>
      <trkpt lat="43.62711" lon="7.02612">
        <ele>167.39050292969</ele>
        <time>2011-09-08T20:31:02Z</time>
      </trkpt>
      <trkpt lat="43.62697" lon="7.02608">
        <ele>167.99960327148</ele>
        <time>2011-09-08T20:31:09Z</time>
      </trkpt>
      <trkpt lat="43.62683" lon="7.02611">
        <ele>169.58409118652</ele>
        <time>2011-09-08T20:31:16Z</time>
      </trkpt>
      <trkpt lat="43.62668" lon="7.02617">
        <ele>171.62785339356</ele>
        <time>2011-09-08T20:31:24Z</time>
      </trkpt>
      <trkpt lat="43.62652" lon="7.02624">
        <ele>173.67881774902</ele>
        <time>2011-09-08T20:31:32Z</time>
      </trkpt>
      <trkpt lat="43.62634" lon="7.02634">
        <ele>175.50285339356</ele>
        <time>2011-09-08T20:31:41Z</time>
      </trkpt>
      <trkpt lat="43.6262" lon="7.02645">
        <ele>176.11740112305</ele>
        <time>2011-09-08T20:31:49Z</time>
      </trkpt>
      <trkpt lat="43.62603" lon="7.02653">
        <ele>177.41201782227</ele>
        <time>2011-09-08T20:31:57Z</time>
      </trkpt>
      <trkpt lat="43.62584" lon="7.02658">
        <ele>179.30029296875</ele>
        <time>2011-09-08T20:32:06Z</time>
      </trkpt>
      <trkpt lat="43.62565" lon="7.02658">
        <ele>182.89358520508</ele>
        <time>2011-09-08T20:32:16Z</time>
      </trkpt>
      <trkpt lat="43.62551" lon="7.02655">
        <ele>185.26194763184</ele>
        <time>2011-09-08T20:32:23Z</time>
      </trkpt>
      <trkpt lat="43.62531" lon="7.02652">
        <ele>188.38822937012</ele>
        <time>2011-09-08T20:32:32Z</time>
      </trkpt>
      <trkpt lat="43.62517" lon="7.02653">
        <ele>191.75041198731</ele>
        <time>2011-09-08T20:32:39Z</time>
      </trkpt>
      <trkpt lat="43.62505" lon="7.02654">
        <ele>194.84375</ele>
        <time>2011-09-08T20:32:45Z</time>
      </trkpt>
      <trkpt lat="43.62488" lon="7.02654">
        <ele>198.87219238281</ele>
        <time>2011-09-08T20:32:53Z</time>
      </trkpt>
      <trkpt lat="43.62473" lon="7.02652">
        <ele>202.39221191406</ele>
        <time>2011-09-08T20:33:00Z</time>
      </trkpt>
      <trkpt lat="43.62458" lon="7.02647">
        <ele>204.92111206055</ele>
        <time>2011-09-08T20:33:05Z</time>
      </trkpt>
      <trkpt lat="43.6244" lon="7.02633">
        <ele>207.58343505859</ele>
        <time>2011-09-08T20:33:12Z</time>
      </trkpt>
      <trkpt lat="43.62421" lon="7.02613">
        <ele>211.68151855469</ele>
        <time>2011-09-08T20:33:19Z</time>
      </trkpt>
      <trkpt lat="43.62403" lon="7.02588">
        <ele>215.15316772461</ele>
        <time>2011-09-08T20:33:26Z</time>
      </trkpt>
      <trkpt lat="43.62388" lon="7.02551">
        <ele>217.17832946777</ele>
        <time>2011-09-08T20:33:35Z</time>
      </trkpt>
      <trkpt lat="43.62373" lon="7.02522">
        <ele>218.30947875977</ele>
        <time>2011-09-08T20:33:42Z</time>
      </trkpt>
      <trkpt lat="43.62363" lon="7.02499">
        <ele>219.08822631836</ele>
        <time>2011-09-08T20:33:48Z</time>
      </trkpt>
      <trkpt lat="43.62352" lon="7.02485">
        <ele>218.88960266113</ele>
        <time>2011-09-08T20:33:53Z</time>
      </trkpt>
      <trkpt lat="43.62349" lon="7.02483">
        <ele>218.86360168457</ele>
        <time>2011-09-08T20:33:56Z</time>
      </trkpt>
      <trkpt lat="43.62349" lon="7.02483">
        <ele>218.86360168457</ele>
        <time>2011-09-08T20:33:57Z</time>
      </trkpt>
      <trkpt lat="43.6235" lon="7.02483">
        <ele>218.86148071289</ele>
        <time>2011-09-08T20:34:10Z</time>
      </trkpt>
      <trkpt lat="43.62347" lon="7.02478">
        <ele>219.06880187988</ele>
        <time>2011-09-08T20:34:27Z</time>
      </trkpt>
      <trkpt lat="43.62348" lon="7.02471">
        <ele>219.54730224609</ele>
        <time>2011-09-08T20:34:30Z</time>
      </trkpt>
      <trkpt lat="43.62351" lon="7.02464">
        <ele>219.74449157715</ele>
        <time>2011-09-08T20:34:33Z</time>
      </trkpt>
      <trkpt lat="43.62357" lon="7.02455">
        <ele>219.94050598144</ele>
        <time>2011-09-08T20:34:37Z</time>
      </trkpt>
      <trkpt lat="43.6237" lon="7.02439">
        <ele>220</ele>
        <time>2011-09-08T20:34:44Z</time>
      </trkpt>
      <trkpt lat="43.62383" lon="7.02425">
        <ele>220</ele>
        <time>2011-09-08T20:34:51Z</time>
      </trkpt>
      <trkpt lat="43.62394" lon="7.02416">
        <ele>220</ele>
        <time>2011-09-08T20:34:57Z</time>
      </trkpt>
      <trkpt lat="43.62406" lon="7.02407">
        <ele>220</ele>
        <time>2011-09-08T20:35:05Z</time>
      </trkpt>
      <trkpt lat="43.62412" lon="7.024">
        <ele>220</ele>
        <time>2011-09-08T20:35:10Z</time>
      </trkpt>
      <trkpt lat="43.62414" lon="7.02398">
        <ele>220</ele>
        <time>2011-09-08T20:35:11Z</time>
      </trkpt>
      <trkpt lat="43.62425" lon="7.02383">
        <ele>220</ele>
        <time>2011-09-08T20:35:19Z</time>
      </trkpt>
      <trkpt lat="43.62436" lon="7.02372">
        <ele>220</ele>
        <time>2011-09-08T20:35:26Z</time>
      </trkpt>
      <trkpt lat="43.62443" lon="7.02362">
        <ele>220</ele>
        <time>2011-09-08T20:35:32Z</time>
      </trkpt>
      <trkpt lat="43.62455" lon="7.02352">
        <ele>220</ele>
        <time>2011-09-08T20:35:39Z</time>
      </trkpt>
      <trkpt lat="43.62465" lon="7.02345">
        <ele>220</ele>
        <time>2011-09-08T20:35:45Z</time>
      </trkpt>
      <trkpt lat="43.62475" lon="7.02336">
        <ele>219.02188110352</ele>
        <time>2011-09-08T20:35:51Z</time>
      </trkpt>
      <trkpt lat="43.62484" lon="7.0232">
        <ele>216.72029113769</ele>
        <time>2011-09-08T20:35:58Z</time>
      </trkpt>
      <trkpt lat="43.62484" lon="7.023">
        <ele>217.03285217285</ele>
        <time>2011-09-08T20:36:05Z</time>
      </trkpt>
      <trkpt lat="43.62486" lon="7.02279">
        <ele>216.95195007324</ele>
        <time>2011-09-08T20:36:11Z</time>
      </trkpt>
      <trkpt lat="43.62485" lon="7.0225">
        <ele>218.13583374023</ele>
        <time>2011-09-08T20:36:18Z</time>
      </trkpt>
      <trkpt lat="43.62478" lon="7.02221">
        <ele>219.5768737793</ele>
        <time>2011-09-08T20:36:24Z</time>
      </trkpt>
      <trkpt lat="43.62465" lon="7.02191">
        <ele>220</ele>
        <time>2011-09-08T20:36:30Z</time>
      </trkpt>
      <trkpt lat="43.62458" lon="7.02174">
        <ele>220</ele>
        <time>2011-09-08T20:36:33Z</time>
      </trkpt>
      <trkpt lat="43.62456" lon="7.02159">
        <ele>220</ele>
        <time>2011-09-08T20:36:35Z</time>
      </trkpt>
      <trkpt lat="43.62452" lon="7.02113">
        <ele>220</ele>
        <time>2011-09-08T20:36:41Z</time>
      </trkpt>
      <trkpt lat="43.6245" lon="7.02085">
        <ele>220</ele>
        <time>2011-09-08T20:36:45Z</time>
      </trkpt>
      <trkpt lat="43.62452" lon="7.02071">
        <ele>220</ele>
        <time>2011-09-08T20:36:47Z</time>
      </trkpt>
      <trkpt lat="43.62458" lon="7.02043">
        <ele>220</ele>
        <time>2011-09-08T20:36:51Z</time>
      </trkpt>
      <trkpt lat="43.6246" lon="7.02036">
        <ele>220</ele>
        <time>2011-09-08T20:36:52Z</time>
      </trkpt>
      <trkpt lat="43.62468" lon="7.02011">
        <ele>220</ele>
        <time>2011-09-08T20:36:56Z</time>
      </trkpt>
      <trkpt lat="43.62469" lon="7.02004">
        <ele>220</ele>
        <time>2011-09-08T20:36:57Z</time>
      </trkpt>
      <trkpt lat="43.62474" lon="7.0199">
        <ele>220</ele>
        <time>2011-09-08T20:36:59Z</time>
      </trkpt>
      <trkpt lat="43.62481" lon="7.01976">
        <ele>220</ele>
        <time>2011-09-08T20:37:01Z</time>
      </trkpt>
      <trkpt lat="43.62482" lon="7.0197">
        <ele>220</ele>
        <time>2011-09-08T20:37:02Z</time>
      </trkpt>
      <trkpt lat="43.62483" lon="7.0196">
        <ele>220</ele>
        <time>2011-09-08T20:37:04Z</time>
      </trkpt>
      <trkpt lat="43.62484" lon="7.01947">
        <ele>220</ele>
        <time>2011-09-08T20:37:07Z</time>
      </trkpt>
      <trkpt lat="43.62486" lon="7.01939">
        <ele>219.58134460449</ele>
        <time>2011-09-08T20:37:09Z</time>
      </trkpt>
      <trkpt lat="43.62486" lon="7.01937">
        <ele>219.45513916016</ele>
        <time>2011-09-08T20:37:10Z</time>
      </trkpt>
      <trkpt lat="43.62479" lon="7.01925">
        <ele>219.35145568848</ele>
        <time>2011-09-08T20:37:14Z</time>
      </trkpt>
      <trkpt lat="43.62462" lon="7.01904">
        <ele>220</ele>
        <time>2011-09-08T20:37:19Z</time>
      </trkpt>
      <trkpt lat="43.62453" lon="7.01884">
        <ele>219.37287902832</ele>
        <time>2011-09-08T20:37:23Z</time>
      </trkpt>
      <trkpt lat="43.62443" lon="7.01862">
        <ele>217.20230102539</ele>
        <time>2011-09-08T20:37:27Z</time>
      </trkpt>
      <trkpt lat="43.62439" lon="7.01858">
        <ele>217.09465026856</ele>
        <time>2011-09-08T20:37:28Z</time>
      </trkpt>
      <trkpt lat="43.62429" lon="7.01853">
        <ele>217.4083404541</ele>
        <time>2011-09-08T20:37:31Z</time>
      </trkpt>
      <trkpt lat="43.62424" lon="7.01854">
        <ele>217.88879394531</ele>
        <time>2011-09-08T20:37:32Z</time>
      </trkpt>
      <trkpt lat="43.62409" lon="7.01846">
        <ele>216.69378662109</ele>
        <time>2011-09-08T20:37:36Z</time>
      </trkpt>
      <trkpt lat="43.62405" lon="7.01845">
        <ele>215.98188781738</ele>
        <time>2011-09-08T20:37:37Z</time>
      </trkpt>
      <trkpt lat="43.62395" lon="7.0185">
        <ele>214.54743957519</ele>
        <time>2011-09-08T20:37:39Z</time>
      </trkpt>
      <trkpt lat="43.6238" lon="7.01852">
        <ele>212.22285461426</ele>
        <time>2011-09-08T20:37:43Z</time>
      </trkpt>
      <trkpt lat="43.62372" lon="7.0185">
        <ele>210.77156066894</ele>
        <time>2011-09-08T20:37:45Z</time>
      </trkpt>
      <trkpt lat="43.62359" lon="7.01849">
        <ele>208.43176269531</ele>
        <time>2011-09-08T20:37:47Z</time>
      </trkpt>
      <trkpt lat="43.62346" lon="7.01859">
        <ele>205.25946044922</ele>
        <time>2011-09-08T20:37:51Z</time>
      </trkpt>
      <trkpt lat="43.62342" lon="7.01869">
        <ele>203.89985656738</ele>
        <time>2011-09-08T20:37:55Z</time>
      </trkpt>
      <trkpt lat="43.62324" lon="7.01873">
        <ele>201.58685302734</ele>
        <time>2011-09-08T20:37:59Z</time>
      </trkpt>
      <trkpt lat="43.623" lon="7.01877">
        <ele>201.20886230469</ele>
        <time>2011-09-08T20:38:03Z</time>
      </trkpt>
      <trkpt lat="43.62295" lon="7.01874">
        <ele>201.14533996582</ele>
        <time>2011-09-08T20:38:04Z</time>
      </trkpt>
      <trkpt lat="43.62288" lon="7.01865">
        <ele>201.19512939453</ele>
        <time>2011-09-08T20:38:06Z</time>
      </trkpt>
      <trkpt lat="43.62285" lon="7.01862">
        <ele>201.2311706543</ele>
        <time>2011-09-08T20:38:07Z</time>
      </trkpt>
      <trkpt lat="43.62279" lon="7.01849">
        <ele>201.48179626465</ele>
        <time>2011-09-08T20:38:10Z</time>
      </trkpt>
      <trkpt lat="43.62279" lon="7.01835">
        <ele>201.98477172852</ele>
        <time>2011-09-08T20:38:14Z</time>
      </trkpt>
      <trkpt lat="43.62274" lon="7.01818">
        <ele>202.54037475586</ele>
        <time>2011-09-08T20:38:18Z</time>
      </trkpt>
      <trkpt lat="43.62275" lon="7.01814">
        <ele>202.69143676758</ele>
        <time>2011-09-08T20:38:19Z</time>
      </trkpt>
      <trkpt lat="43.62276" lon="7.01782">
        <ele>203.8779296875</ele>
        <time>2011-09-08T20:38:26Z</time>
      </trkpt>
      <trkpt lat="43.62276" lon="7.01761">
        <ele>205.24171447754</ele>
        <time>2011-09-08T20:38:32Z</time>
      </trkpt>
      <trkpt lat="43.62278" lon="7.01743">
        <ele>206.00157165527</ele>
        <time>2011-09-08T20:38:38Z</time>
      </trkpt>
      <trkpt lat="43.62278" lon="7.01735">
        <ele>206.00334167481</ele>
        <time>2011-09-08T20:38:41Z</time>
      </trkpt>
      <trkpt lat="43.62273" lon="7.01733">
        <ele>206.10517883301</ele>
        <time>2011-09-08T20:38:43Z</time>
      </trkpt>
      <trkpt lat="43.62269" lon="7.01723">
        <ele>206.31750488281</ele>
        <time>2011-09-08T20:38:46Z</time>
      </trkpt>
      <trkpt lat="43.62263" lon="7.01714">
        <ele>207.14137268066</ele>
        <time>2011-09-08T20:38:50Z</time>
      </trkpt>
      <trkpt lat="43.62261" lon="7.01712">
        <ele>207.33363342285</ele>
        <time>2011-09-08T20:38:51Z</time>
      </trkpt>
      <trkpt lat="43.62254" lon="7.01704">
        <ele>208.20223999023</ele>
        <time>2011-09-08T20:38:56Z</time>
      </trkpt>
      <trkpt lat="43.62246" lon="7.01691">
        <ele>209.41653442383</ele>
        <time>2011-09-08T20:39:01Z</time>
      </trkpt>
      <trkpt lat="43.62244" lon="7.01683">
        <ele>209.91351318359</ele>
        <time>2011-09-08T20:39:07Z</time>
      </trkpt>
      <trkpt lat="43.62241" lon="7.01679">
        <ele>210.37028503418</ele>
        <time>2011-09-08T20:39:13Z</time>
      </trkpt>
      <trkpt lat="43.62238" lon="7.01679">
        <ele>210.68675231934</ele>
        <time>2011-09-08T20:39:17Z</time>
      </trkpt>
      <trkpt lat="43.62234" lon="7.01679">
        <ele>210.99102783203</ele>
        <time>2011-09-08T20:39:22Z</time>
      </trkpt>
      <trkpt lat="43.62228" lon="7.01677">
        <ele>211.72741699219</ele>
        <time>2011-09-08T20:39:29Z</time>
      </trkpt>
      <trkpt lat="43.62226" lon="7.01675">
        <ele>212.06707763672</ele>
        <time>2011-09-08T20:39:32Z</time>
      </trkpt>
      <trkpt lat="43.62223" lon="7.01673">
        <ele>212.48934936523</ele>
        <time>2011-09-08T20:39:36Z</time>
      </trkpt>
      <trkpt lat="43.62222" lon="7.01671">
        <ele>212.69735717773</ele>
        <time>2011-09-08T20:39:37Z</time>
      </trkpt>
      <trkpt lat="43.62212" lon="7.01674">
        <ele>213.46485900879</ele>
        <time>2011-09-08T20:39:43Z</time>
      </trkpt>
      <trkpt lat="43.6221" lon="7.01675">
        <ele>213.56443786621</ele>
        <time>2011-09-08T20:39:44Z</time>
      </trkpt>
      <trkpt lat="43.62198" lon="7.0168">
        <ele>214.20007324219</ele>
        <time>2011-09-08T20:39:49Z</time>
      </trkpt>
      <trkpt lat="43.62183" lon="7.01687">
        <ele>214.50590515137</ele>
        <time>2011-09-08T20:39:54Z</time>
      </trkpt>
      <trkpt lat="43.62163" lon="7.01695">
        <ele>214.85066223144</ele>
        <time>2011-09-08T20:39:59Z</time>
      </trkpt>
      <trkpt lat="43.62143" lon="7.01693">
        <ele>214.23895263672</ele>
        <time>2011-09-08T20:40:03Z</time>
      </trkpt>
      <trkpt lat="43.62134" lon="7.01691">
        <ele>213.93862915039</ele>
        <time>2011-09-08T20:40:05Z</time>
      </trkpt>
      <trkpt lat="43.62127" lon="7.01683">
        <ele>213.94206237793</ele>
        <time>2011-09-08T20:40:08Z</time>
      </trkpt>
      <trkpt lat="43.62122" lon="7.01657">
        <ele>215.25154113769</ele>
        <time>2011-09-08T20:40:12Z</time>
      </trkpt>
      <trkpt lat="43.62118" lon="7.01645">
        <ele>215.49325561523</ele>
        <time>2011-09-08T20:40:14Z</time>
      </trkpt>
      <trkpt lat="43.62114" lon="7.01633">
        <ele>215.87390136719</ele>
        <time>2011-09-08T20:40:16Z</time>
      </trkpt>
      <trkpt lat="43.6211" lon="7.01629">
        <ele>215.81239318848</ele>
        <time>2011-09-08T20:40:17Z</time>
      </trkpt>
      <trkpt lat="43.62092" lon="7.01618">
        <ele>212.81585693359</ele>
        <time>2011-09-08T20:40:20Z</time>
      </trkpt>
      <trkpt lat="43.62088" lon="7.01616">
        <ele>211.85929870606</ele>
        <time>2011-09-08T20:40:21Z</time>
      </trkpt>
      <trkpt lat="43.62078" lon="7.01614">
        <ele>210.32698059082</ele>
        <time>2011-09-08T20:40:23Z</time>
      </trkpt>
      <trkpt lat="43.62069" lon="7.01612">
        <ele>209.43096923828</ele>
        <time>2011-09-08T20:40:25Z</time>
      </trkpt>
      <trkpt lat="43.62059" lon="7.01622">
        <ele>207.66429138184</ele>
        <time>2011-09-08T20:40:28Z</time>
      </trkpt>
      <trkpt lat="43.62056" lon="7.01628">
        <ele>206.81094360352</ele>
        <time>2011-09-08T20:40:29Z</time>
      </trkpt>
      <trkpt lat="43.62041" lon="7.01647">
        <ele>203.05320739746</ele>
        <time>2011-09-08T20:40:32Z</time>
      </trkpt>
      <trkpt lat="43.62028" lon="7.01657">
        <ele>200.31677246094</ele>
        <time>2011-09-08T20:40:34Z</time>
      </trkpt>
      <trkpt lat="43.62014" lon="7.01666">
        <ele>192.37622070312</ele>
        <time>2011-09-08T20:40:36Z</time>
      </trkpt>
      <trkpt lat="43.61999" lon="7.0167">
        <ele>184.85974121094</ele>
        <time>2011-09-08T20:40:38Z</time>
      </trkpt>
      <trkpt lat="43.61983" lon="7.01669">
        <ele>184.337890625</ele>
        <time>2011-09-08T20:40:40Z</time>
      </trkpt>
      <trkpt lat="43.61961" lon="7.01663">
        <ele>183.60913085938</ele>
        <time>2011-09-08T20:40:44Z</time>
      </trkpt>
      <trkpt lat="43.61959" lon="7.01661">
        <ele>183.51300048828</ele>
        <time>2011-09-08T20:40:45Z</time>
      </trkpt>
      <trkpt lat="43.61956" lon="7.01653">
        <ele>183.40313720703</ele>
        <time>2011-09-08T20:40:47Z</time>
      </trkpt>
      <trkpt lat="43.61956" lon="7.01643">
        <ele>183.41687011719</ele>
        <time>2011-09-08T20:40:49Z</time>
      </trkpt>
      <trkpt lat="43.61957" lon="7.01638">
        <ele>183.50611877441</ele>
        <time>2011-09-08T20:40:50Z</time>
      </trkpt>
      <trkpt lat="43.61959" lon="7.01631">
        <ele>183.79107666016</ele>
        <time>2011-09-08T20:40:51Z</time>
      </trkpt>
      <trkpt lat="43.61966" lon="7.01594">
        <ele>185.3720703125</ele>
        <time>2011-09-08T20:40:58Z</time>
      </trkpt>
      <trkpt lat="43.61969" lon="7.01556">
        <ele>185.99807739258</ele>
        <time>2011-09-08T20:41:06Z</time>
      </trkpt>
      <trkpt lat="43.61966" lon="7.01524">
        <ele>186.8200378418</ele>
        <time>2011-09-08T20:41:12Z</time>
      </trkpt>
      <trkpt lat="43.61962" lon="7.0148">
        <ele>187.72660827637</ele>
        <time>2011-09-08T20:41:20Z</time>
      </trkpt>
      <trkpt lat="43.61957" lon="7.01452">
        <ele>188.33555603027</ele>
        <time>2011-09-08T20:41:26Z</time>
      </trkpt>
      <trkpt lat="43.6196" lon="7.01425">
        <ele>188.86122131348</ele>
        <time>2011-09-08T20:41:33Z</time>
      </trkpt>
      <trkpt lat="43.61961" lon="7.01402">
        <ele>189.52812194824</ele>
        <time>2011-09-08T20:41:39Z</time>
      </trkpt>
      <trkpt lat="43.61967" lon="7.01379">
        <ele>190.36755371094</ele>
        <time>2011-09-08T20:41:44Z</time>
      </trkpt>
      <trkpt lat="43.61978" lon="7.01359">
        <ele>191</ele>
        <time>2011-09-08T20:41:49Z</time>
      </trkpt>
      <trkpt lat="43.61993" lon="7.01326">
        <ele>191.26440429688</ele>
        <time>2011-09-08T20:41:57Z</time>
      </trkpt>
      <trkpt lat="43.61995" lon="7.013">
        <ele>192.16209411621</ele>
        <time>2011-09-08T20:42:02Z</time>
      </trkpt>
      <trkpt lat="43.61998" lon="7.01263">
        <ele>192.96519470215</ele>
        <time>2011-09-08T20:42:09Z</time>
      </trkpt>
      <trkpt lat="43.61992" lon="7.01257">
        <ele>162</ele>
        <time>2011-09-08T20:42:14Z</time>
      </trkpt>
      <trkpt lat="43.61996" lon="7.01232">
        <ele>163</ele>
        <time>2011-09-08T20:42:19Z</time>
      </trkpt>
      <trkpt lat="43.62" lon="7.01184">
        <ele>163</ele>
        <time>2011-09-08T20:42:29Z</time>
      </trkpt>
      <trkpt lat="43.62" lon="7.01161">
        <ele>164</ele>
        <time>2011-09-08T20:42:34Z</time>
      </trkpt>
      <trkpt lat="43.61999" lon="7.01137">
        <ele>164</ele>
        <time>2011-09-08T20:42:39Z</time>
      </trkpt>
      <trkpt lat="43.62" lon="7.01113">
        <ele>163</ele>
        <time>2011-09-08T20:42:44Z</time>
      </trkpt>
      <trkpt lat="43.61996" lon="7.01083">
        <ele>163</ele>
        <time>2011-09-08T20:42:54Z</time>
      </trkpt>
      <trkpt lat="43.61961" lon="7.01147">
        <ele>163</ele>
        <time>2011-09-08T20:43:17Z</time>
      </trkpt>
      <trkpt lat="43.6188" lon="7.01276">
        <ele>158</ele>
        <time>2011-09-08T20:43:50Z</time>
      </trkpt>
      <trkpt lat="43.61856" lon="7.01305">
        <ele>156</ele>
        <time>2011-09-08T20:44:08Z</time>
      </trkpt>
      <trkpt lat="43.61855" lon="7.01332">
        <ele>156</ele>
        <time>2011-09-08T20:44:15Z</time>
      </trkpt>
      <trkpt lat="43.61847" lon="7.01352">
        <ele>157</ele>
        <time>2011-09-08T20:44:19Z</time>
      </trkpt>
      <trkpt lat="43.6183" lon="7.01361">
        <ele>156</ele>
        <time>2011-09-08T20:44:24Z</time>
      </trkpt>
      <trkpt lat="43.61812" lon="7.01356">
        <ele>154</ele>
        <time>2011-09-08T20:44:30Z</time>
      </trkpt>
      <trkpt lat="43.61791" lon="7.01357">
        <ele>156</ele>
        <time>2011-09-08T20:44:37Z</time>
      </trkpt>
      <trkpt lat="43.61721" lon="7.01401">
        <ele>158</ele>
        <time>2011-09-08T20:45:02Z</time>
      </trkpt>
      <trkpt lat="43.6168" lon="7.01458">
        <ele>164</ele>
        <time>2011-09-08T20:45:21Z</time>
      </trkpt>
      <trkpt lat="43.61656" lon="7.01507">
        <ele>165</ele>
        <time>2011-09-08T20:45:36Z</time>
      </trkpt>
      <trkpt lat="43.61632" lon="7.01538">
        <ele>163</ele>
        <time>2011-09-08T20:45:46Z</time>
      </trkpt>
      <trkpt lat="43.6162" lon="7.016">
        <ele>163</ele>
        <time>2011-09-08T20:45:58Z</time>
      </trkpt>
      <trkpt lat="43.61632" lon="7.01663">
        <ele>165</ele>
        <time>2011-09-08T20:46:06Z</time>
      </trkpt>
      <trkpt lat="43.6167" lon="7.01816">
        <ele>168</ele>
        <time>2011-09-08T20:46:28Z</time>
      </trkpt>
      <trkpt lat="43.61667" lon="7.01816">
        <ele>167</ele>
        <time>2011-09-08T20:47:06Z</time>
      </trkpt>
      <trkpt lat="43.61654" lon="7.01803">
        <ele>167</ele>
        <time>2011-09-08T20:47:12Z</time>
      </trkpt>
      <trkpt lat="43.61612" lon="7.01787">
        <ele>167</ele>
        <time>2011-09-08T20:47:25Z</time>
      </trkpt>
      <trkpt lat="43.61563" lon="7.01763">
        <ele>166</ele>
        <time>2011-09-08T20:47:38Z</time>
      </trkpt>
      <trkpt lat="43.61515" lon="7.01759">
        <ele>169</ele>
        <time>2011-09-08T20:47:48Z</time>
      </trkpt>
      <trkpt lat="43.6147" lon="7.01756">
        <ele>168</ele>
        <time>2011-09-08T20:47:55Z</time>
      </trkpt>
      <trkpt lat="43.61424" lon="7.0177">
        <ele>169</ele>
        <time>2011-09-08T20:48:04Z</time>
      </trkpt>
      <trkpt lat="43.61382" lon="7.01796">
        <ele>169</ele>
        <time>2011-09-08T20:48:12Z</time>
      </trkpt>
      <trkpt lat="43.61271" lon="7.01877">
        <ele>171</ele>
        <time>2011-09-08T20:48:48Z</time>
      </trkpt>
      <trkpt lat="43.61258" lon="7.01897">
        <ele>170</ele>
        <time>2011-09-08T20:48:59Z</time>
      </trkpt>
      <trkpt lat="43.61237" lon="7.01926">
        <ele>176</ele>
        <time>2011-09-08T20:49:39Z</time>
      </trkpt>
      <trkpt lat="43.61252" lon="7.02012">
        <ele>179</ele>
        <time>2011-09-08T20:50:05Z</time>
      </trkpt>
      <trkpt lat="43.61318" lon="7.02278">
        <ele>175</ele>
        <time>2011-09-08T20:50:40Z</time>
      </trkpt>
      <trkpt lat="43.61292" lon="7.02338">
        <ele>177</ele>
        <time>2011-09-08T20:50:47Z</time>
      </trkpt>
      <trkpt lat="43.61255" lon="7.02377">
        <ele>178</ele>
        <time>2011-09-08T20:50:53Z</time>
      </trkpt>
      <trkpt lat="43.61206" lon="7.02439">
        <ele>178</ele>
        <time>2011-09-08T20:51:08Z</time>
      </trkpt>
      <trkpt lat="43.61188" lon="7.02445">
        <ele>176</ele>
        <time>2011-09-08T20:51:12Z</time>
      </trkpt>
      <trkpt lat="43.6117" lon="7.02457">
        <ele>175</ele>
        <time>2011-09-08T20:51:19Z</time>
      </trkpt>
      <trkpt lat="43.61131" lon="7.02458">
        <ele>174</ele>
        <time>2011-09-08T20:53:06Z</time>
      </trkpt>
      <trkpt lat="43.61138" lon="7.02476">
        <ele>171</ele>
        <time>2011-09-08T20:54:20Z</time>
      </trkpt>
      <trkpt lat="43.61152" lon="7.0246">
        <ele>178</ele>
        <time>2011-09-08T20:54:49Z</time>
      </trkpt>
      <trkpt lat="43.61164" lon="7.02476">
        <ele>181</ele>
        <time>2011-09-08T20:55:05Z</time>
      </trkpt>
      <trkpt lat="43.61165" lon="7.02499">
        <ele>183</ele>
        <time>2011-09-08T20:55:14Z</time>
      </trkpt>
      <trkpt lat="43.61162" lon="7.02528">
        <ele>183</ele>
        <time>2011-09-08T20:55:25Z</time>
      </trkpt>
      <trkpt lat="43.61151" lon="7.02563">
        <ele>186</ele>
        <time>2011-09-08T20:55:44Z</time>
      </trkpt>
      <trkpt lat="43.61122" lon="7.02617">
        <ele>190</ele>
        <time>2011-09-08T20:56:17Z</time>
      </trkpt>
      <trkpt lat="43.611" lon="7.02662">
        <ele>191</ele>
        <time>2011-09-08T20:56:36Z</time>
      </trkpt>
      <trkpt lat="43.61042" lon="7.02706">
        <ele>190</ele>
        <time>2011-09-08T20:56:55Z</time>
      </trkpt>
      <trkpt lat="43.61027" lon="7.0272">
        <ele>191</ele>
        <time>2011-09-08T20:56:58Z</time>
      </trkpt>
      <trkpt lat="43.60984" lon="7.02751">
        <ele>189</ele>
        <time>2011-09-08T20:57:05Z</time>
      </trkpt>
      <trkpt lat="43.60936" lon="7.02767">
        <ele>180</ele>
        <time>2011-09-08T20:57:19Z</time>
      </trkpt>
      <trkpt lat="43.60931" lon="7.02792">
        <ele>177</ele>
        <time>2011-09-08T20:57:28Z</time>
      </trkpt>
      <trkpt lat="43.60938" lon="7.02828">
        <ele>177</ele>
        <time>2011-09-08T20:57:37Z</time>
      </trkpt>
      <trkpt lat="43.60947" lon="7.02849">
        <ele>178</ele>
        <time>2011-09-08T20:57:46Z</time>
      </trkpt>
      <trkpt lat="43.60952" lon="7.02877">
        <ele>178</ele>
        <time>2011-09-08T20:57:51Z</time>
      </trkpt>
      <trkpt lat="43.60958" lon="7.02901">
        <ele>179</ele>
        <time>2011-09-08T20:57:54Z</time>
      </trkpt>
      <trkpt lat="43.60967" lon="7.02925">
        <ele>178</ele>
        <time>2011-09-08T20:57:57Z</time>
      </trkpt>
      <trkpt lat="43.61001" lon="7.02977">
        <ele>175</ele>
        <time>2011-09-08T20:58:05Z</time>
      </trkpt>
      <trkpt lat="43.61036" lon="7.03028">
        <ele>173</ele>
        <time>2011-09-08T20:58:11Z</time>
      </trkpt>
      <trkpt lat="43.61049" lon="7.03087">
        <ele>172</ele>
        <time>2011-09-08T20:58:20Z</time>
      </trkpt>
      <trkpt lat="43.61066" lon="7.03109">
        <ele>160</ele>
        <time>2011-09-08T20:58:45Z</time>
      </trkpt>
      <trkpt lat="43.61083" lon="7.03148">
        <ele>158</ele>
        <time>2011-09-08T20:58:53Z</time>
      </trkpt>
      <trkpt lat="43.61095" lon="7.03164">
        <ele>158</ele>
        <time>2011-09-08T20:58:57Z</time>
      </trkpt>
      <trkpt lat="43.61106" lon="7.03179">
        <ele>159</ele>
        <time>2011-09-08T20:59:01Z</time>
      </trkpt>
      <trkpt lat="43.61143" lon="7.03205">
        <ele>159</ele>
        <time>2011-09-08T20:59:10Z</time>
      </trkpt>
      <trkpt lat="43.61277" lon="7.03265">
        <ele>157</ele>
        <time>2011-09-08T20:59:33Z</time>
      </trkpt>
      <trkpt lat="43.61285" lon="7.03289">
        <ele>158</ele>
        <time>2011-09-08T20:59:38Z</time>
      </trkpt>
      <trkpt lat="43.61287" lon="7.03315">
        <ele>159</ele>
        <time>2011-09-08T20:59:43Z</time>
      </trkpt>
      <trkpt lat="43.61296" lon="7.03366">
        <ele>159</ele>
        <time>2011-09-08T20:59:52Z</time>
      </trkpt>
      <trkpt lat="43.61301" lon="7.03392">
        <ele>160</ele>
        <time>2011-09-08T20:59:56Z</time>
      </trkpt>
      <trkpt lat="43.61306" lon="7.03417">
        <ele>160</ele>
        <time>2011-09-08T21:00:00Z</time>
      </trkpt>
      <trkpt lat="43.61309" lon="7.03443">
        <ele>161</ele>
        <time>2011-09-08T21:00:04Z</time>
      </trkpt>
      <trkpt lat="43.61315" lon="7.03557">
        <ele>161</ele>
        <time>2011-09-08T21:00:17Z</time>
      </trkpt>
      <trkpt lat="43.61316" lon="7.03581">
        <ele>159</ele>
        <time>2011-09-08T21:00:19Z</time>
      </trkpt>
      <trkpt lat="43.61328" lon="7.03608">
        <ele>157</ele>
        <time>2011-09-08T21:00:22Z</time>
      </trkpt>
      <trkpt lat="43.61345" lon="7.03621">
        <ele>157</ele>
        <time>2011-09-08T21:00:25Z</time>
      </trkpt>
      <trkpt lat="43.61362" lon="7.03635">
        <ele>157</ele>
        <time>2011-09-08T21:00:28Z</time>
      </trkpt>
      <trkpt lat="43.6138" lon="7.03648">
        <ele>156</ele>
        <time>2011-09-08T21:00:31Z</time>
      </trkpt>
      <trkpt lat="43.61425" lon="7.03633">
        <ele>156</ele>
        <time>2011-09-08T21:00:38Z</time>
      </trkpt>
      <trkpt lat="43.61462" lon="7.03608">
        <ele>154</ele>
        <time>2011-09-08T21:00:44Z</time>
      </trkpt>
      <trkpt lat="43.61477" lon="7.03603">
        <ele>154</ele>
        <time>2011-09-08T21:00:46Z</time>
      </trkpt>
      <trkpt lat="43.6151" lon="7.03612">
        <ele>152</ele>
        <time>2011-09-08T21:00:50Z</time>
      </trkpt>
      <trkpt lat="43.61617" lon="7.03717">
        <ele>153</ele>
        <time>2011-09-08T21:01:10Z</time>
      </trkpt>
      <trkpt lat="43.6164" lon="7.03765">
        <ele>151</ele>
        <time>2011-09-08T21:01:17Z</time>
      </trkpt>
      <trkpt lat="43.6164" lon="7.03787">
        <ele>149</ele>
        <time>2011-09-08T21:01:20Z</time>
      </trkpt>
      <trkpt lat="43.61616" lon="7.03951">
        <ele>138</ele>
        <time>2011-09-08T21:01:42Z</time>
      </trkpt>
      <trkpt lat="43.61552" lon="7.041">
        <ele>127</ele>
        <time>2011-09-08T21:02:05Z</time>
      </trkpt>
      <trkpt lat="43.61517" lon="7.04171">
        <ele>127</ele>
        <time>2011-09-08T21:02:16Z</time>
      </trkpt>
      <trkpt lat="43.61534" lon="7.0418">
        <ele>120</ele>
        <time>2011-09-08T21:02:32Z</time>
      </trkpt>
      <trkpt lat="43.61549" lon="7.04165">
        <ele>114</ele>
        <time>2011-09-08T21:02:47Z</time>
      </trkpt>
      <trkpt lat="43.61567" lon="7.04142">
        <ele>112</ele>
        <time>2011-09-08T21:02:59Z</time>
      </trkpt>
      <trkpt lat="43.61579" lon="7.04126">
        <ele>113</ele>
        <time>2011-09-08T21:03:10Z</time>
      </trkpt>
      <trkpt lat="43.6159" lon="7.04129">
        <ele>103</ele>
        <time>2011-09-08T21:06:24Z</time>
      </trkpt>
    </trkseg>
  </trk>
</gpx>